Observation data for Sterling City on 05/15/2018      Previous  Date  Next       Current Mesonet Observations  Soil Data  Daily Summary Page  Observations in Plain Language
KSC1 150500Z 13009KT 20/16 A2998 RMK A01 T01980159  RH  078%=      5-min Rain = 0
KSC1 150501Z 13007KT 20/16 A2998 RMK A01 T01980158  RH  078%=      5-min Rain = 0
KSC1 150502Z 14007KT 20/16 A2998 RMK A01 T01990158  RH  077%=      5-min Rain = 0
KSC1 150503Z 14010KT 20/16 A2998 RMK A01 T01990158  RH  077%=      5-min Rain = 0
KSC1 150504Z 14009KT 20/16 A2998 RMK A01 T01990157  RH  077%=      5-min Rain = 0
KSC1 150505Z 14011KT 20/16 A2998 RMK A01 T02000157  RH  076%=      5-min Rain = 0
KSC1 150506Z 14010KT 20/16 A2998 RMK A01 T01990156  RH  076%=      5-min Rain = 0
KSC1 150507Z 14008KT 20/16 A2998 RMK A01 T02000156  RH  076%=      5-min Rain = 0
KSC1 150508Z 14011KT 20/16 A2998 RMK A01 T02000156  RH  076%=      5-min Rain = 0
KSC1 150509Z 14009G15KT 20/16 A2998 RMK A01 T02000155  RH  075%=      5-min Rain = 0
KSC1 150510Z 14009KT 20/16 A2998 RMK A01 T02010155  RH  075%=      5-min Rain = 0
KSC1 150511Z 13010KT 20/16 A2998 RMK A01 T02010155  RH  075%=      5-min Rain = 0
KSC1 150512Z 14009KT 20/15 A2998 RMK A01 T02010154  RH  074%=      5-min Rain = 0
KSC1 150513Z 13009G14KT 20/15 A2998 RMK A01 T02010153  RH  074%=      5-min Rain = 0
KSC1 150514Z 13009KT 20/15 A2998 RMK A01 T02020153  RH  074%=      5-min Rain = 0
KSC1 150515Z 13010KT 20/15 A2998 RMK A01 T02020153  RH  073%=      5-min Rain = 0
KSC1 150516Z 13009G14KT 20/15 A2998 RMK A01 T02030153  RH  073%=      5-min Rain = 0
KSC1 150517Z 13011G16KT 20/15 A2998 RMK A01 T02030153  RH  073%=      5-min Rain = 0
KSC1 150518Z 13011G17KT 20/15 A2998 RMK A01 T02030152  RH  072%=      5-min Rain = 0
KSC1 150519Z 12012KT 20/15 A2998 RMK A01 T02040152  RH  072%=      5-min Rain = 0
KSC1 150520Z 13011KT 20/15 A2998 RMK A01 T02040151  RH  072%=      5-min Rain = 0
KSC1 150521Z 12013KT 20/15 A2998 RMK A01 T02040151  RH  071%=      5-min Rain = 0
KSC1 150522Z 13011KT 21/15 A2998 RMK A01 T02050151  RH  071%=      5-min Rain = 0
KSC1 150523Z 12011KT 21/15 A2998 RMK A01 T02050151  RH  071%=      5-min Rain = 0
KSC1 150524Z 13010KT 21/15 A2998 RMK A01 T02050150  RH  071%=      5-min Rain = 0
KSC1 150525Z 13010KT 20/15 A2998 RMK A01 T02040150  RH  071%=      5-min Rain = 0
KSC1 150526Z 12011KT 20/15 A2998 RMK A01 T02040149  RH  070%=      5-min Rain = 0
KSC1 150527Z 13010KT 20/15 A2998 RMK A01 T02040148  RH  070%=      5-min Rain = 0
KSC1 150528Z 13010G16KT 20/15 A2998 RMK A01 T02040148  RH  070%=      5-min Rain = 0
KSC1 150529Z 13008KT 20/15 A2998 RMK A01 T02040147  RH  070%=      5-min Rain = 0
KSC1 150530Z 13010G15KT 20/15 A2998 RMK A01 T02040147  RH  070%=      5-min Rain = 0
KSC1 150531Z 13009KT 21/15 A2998 RMK A01 T02050147  RH  069%=      5-min Rain = 0
KSC1 150532Z 14010KT 21/15 A2998 RMK A01 T02050146  RH  069%=      5-min Rain = 0
KSC1 150533Z 14008KT 21/15 A2998 RMK A01 T02060146  RH  069%=      5-min Rain = 0
KSC1 150534Z 14012KT 21/15 A2998 RMK A01 T02060146  RH  068%=      5-min Rain = 0
KSC1 150535Z 14010KT 21/15 A2998 RMK A01 T02070146  RH  068%=      5-min Rain = 0
KSC1 150536Z 14009KT 21/15 A2998 RMK A01 T02080146  RH  067%=      5-min Rain = 0
KSC1 150537Z 14012KT 21/15 A2998 RMK A01 T02080145  RH  067%=      5-min Rain = 0
KSC1 150538Z 15010KT 21/14 A2998 RMK A01 T02080144  RH  067%=      5-min Rain = 0
KSC1 150539Z 14011G16KT 21/14 A2998 RMK A01 T02080144  RH  067%=      5-min Rain = 0
KSC1 150540Z 15012KT 21/14 A2998 RMK A01 T02080144  RH  066%=      5-min Rain = 0
KSC1 150541Z 15013KT 21/14 A2998 RMK A01 T02080144  RH  066%=      5-min Rain = 0
KSC1 150542Z 14012KT 21/14 A2998 RMK A01 T02080143  RH  066%=      5-min Rain = 0
KSC1 150543Z 15016KT 21/14 A2998 RMK A01 T02090143  RH  066%=      5-min Rain = 0
KSC1 150544Z 15011KT 21/14 A2998 RMK A01 T02080143  RH  066%=      5-min Rain = 0
KSC1 150545Z 15008KT 21/14 A2998 RMK A01 T02080144  RH  067%=      5-min Rain = 0
KSC1 150546Z 15008G13KT 21/14 A2998 RMK A01 T02070144  RH  067%=      5-min Rain = 0
KSC1 150547Z 15012KT 21/14 A2998 RMK A01 T02060144  RH  067%=      5-min Rain = 0
KSC1 150548Z 15012KT 21/14 A2998 RMK A01 T02060144  RH  068%=      5-min Rain = 0
KSC1 150549Z 15010KT 21/14 A2998 RMK A01 T02050143  RH  068%=      5-min Rain = 0
KSC1 150550Z 15011KT 21/14 A2998 RMK A01 T02050143  RH  068%=      5-min Rain = 0
KSC1 150551Z 15011KT 21/14 A2998 RMK A01 T02050142  RH  067%=      5-min Rain = 0
KSC1 150552Z 15011KT 21/14 A2998 RMK A01 T02050142  RH  067%=      5-min Rain = 0
KSC1 150553Z 15013KT 21/14 A2998 RMK A01 T02050142  RH  067%=      5-min Rain = 0
KSC1 150554Z 14010KT 21/14 A2998 RMK A01 T02050142  RH  067%=      5-min Rain = 0
KSC1 150555Z 15008KT 21/14 A2998 RMK A01 T02050142  RH  067%=      5-min Rain = 0
KSC1 150556Z 15009KT 21/14 A2998 RMK A01 T02050143  RH  067%=      5-min Rain = 0
KSC1 150557Z 16006KT 21/14 A2998 RMK A01 T02050143  RH  068%=      5-min Rain = 0
KSC1 150558Z 16008KT 20/14 A2998 RMK A01 T02040144  RH  068%=      5-min Rain = 0
KSC1 150559Z 15005KT 20/14 A2998 RMK A01 T02030144  RH  069%=      5-min Rain = 0
KSC1 150600Z 15007KT 20/14 A2998 RMK A01 T02020144  RH  069%=      5-min Rain = 0
KSC1 150601Z 15009KT 20/14 A2998 RMK A01 T02010144  RH  070%=      5-min Rain = 0
KSC1 150602Z 15009KT 20/15 A2998 RMK A01 T02010145  RH  070%=      5-min Rain = 0
KSC1 150603Z 15009KT 20/15 A2998 RMK A01 T02010145  RH  070%=      5-min Rain = 0
KSC1 150604Z 15007KT 20/15 A2998 RMK A01 T02010145  RH  070%=      5-min Rain = 0
KSC1 150605Z 14007KT 20/15 A2998 RMK A01 T02010145  RH  070%=      5-min Rain = 0
KSC1 150606Z 14008KT 20/15 A2998 RMK A01 T02010146  RH  070%=      5-min Rain = 0
KSC1 150607Z 15008KT 20/15 A2998 RMK A01 T02010146  RH  071%=      5-min Rain = 0
KSC1 150608Z 14006KT 20/15 A2998 RMK A01 T02000145  RH  071%=      5-min Rain = 0
KSC1 150609Z 15008KT 20/15 A2998 RMK A01 T02000145  RH  071%=      5-min Rain = 0
KSC1 150610Z 15007KT 20/15 A2998 RMK A01 T02000145  RH  071%=      5-min Rain = 0
KSC1 150611Z 15008KT 20/15 A2998 RMK A01 T01990145  RH  071%=      5-min Rain = 0
KSC1 150612Z 15007KT 20/15 A2998 RMK A01 T02000145  RH  071%=      5-min Rain = 0
KSC1 150613Z 16007KT 20/15 A2998 RMK A01 T02000146  RH  071%=      5-min Rain = 0
KSC1 150614Z 15008KT 20/15 A2998 RMK A01 T02000146  RH  071%=      5-min Rain = 0
KSC1 150615Z 16008KT 20/15 A2998 RMK A01 T02000146  RH  071%=      5-min Rain = 0
KSC1 150616Z 15009KT 20/15 A2998 RMK A01 T01990146  RH  071%=      5-min Rain = 0
KSC1 150617Z 16008KT 20/15 A2998 RMK A01 T01990146  RH  072%=      5-min Rain = 0
KSC1 150618Z 15008KT 20/15 A2998 RMK A01 T01990146  RH  072%=      5-min Rain = 0
KSC1 150619Z 15007KT 20/15 A2998 RMK A01 T01990146  RH  072%=      5-min Rain = 0
KSC1 150620Z 15010KT 20/15 A2998 RMK A01 T01980146  RH  072%=      5-min Rain = 0
KSC1 150621Z 15008KT 20/15 A2998 RMK A01 T01980146  RH  072%=      5-min Rain = 0
KSC1 150622Z 16009KT 20/15 A2998 RMK A01 T01980147  RH  072%=      5-min Rain = 0
KSC1 150623Z 15009KT 20/15 A2998 RMK A01 T01980146  RH  072%=      5-min Rain = 0
KSC1 150624Z 15008KT 20/15 A2998 RMK A01 T01980146  RH  072%=      5-min Rain = 0
KSC1 150625Z 16008KT 20/15 A2998 RMK A01 T01980145  RH  071%=      5-min Rain = 0
KSC1 150626Z 16008KT 20/15 A2998 RMK A01 T01990145  RH  071%=      5-min Rain = 0
KSC1 150627Z 16007KT 20/15 A2998 RMK A01 T01990145  RH  071%=      5-min Rain = 0
KSC1 150628Z 15006KT 20/15 A2998 RMK A01 T01990145  RH  071%=      5-min Rain = 0
KSC1 150629Z 16007KT 20/15 A2998 RMK A01 T01990145  RH  071%=      5-min Rain = 0
KSC1 150630Z 16008KT 20/14 A2998 RMK A01 T01990144  RH  071%=      5-min Rain = 0
KSC1 150631Z 16009KT 20/14 A2998 RMK A01 T01990144  RH  071%=      5-min Rain = 0
KSC1 150632Z 16008KT 20/14 A2998 RMK A01 T01990144  RH  070%=      5-min Rain = 0
KSC1 150633Z 16009KT 20/14 A2998 RMK A01 T02000143  RH  070%=      5-min Rain = 0
KSC1 150634Z 16009KT 20/14 A2998 RMK A01 T02000143  RH  070%=      5-min Rain = 0
KSC1 150635Z 15006G11KT 20/14 A2997 RMK A01 T02000143  RH  069%=      5-min Rain = 0
KSC1 150636Z 16006KT 20/14 A2997 RMK A01 T02010143  RH  069%=      5-min Rain = 0
KSC1 150637Z 15008KT 20/14 A2997 RMK A01 T02000143  RH  069%=      5-min Rain = 0
KSC1 150638Z 15006KT 20/14 A2997 RMK A01 T02000142  RH  069%=      5-min Rain = 0
KSC1 150639Z 15006KT 20/14 A2997 RMK A01 T02000142  RH  069%=      5-min Rain = 0
KSC1 150640Z 16006KT 20/14 A2997 RMK A01 T02000142  RH  069%=      5-min Rain = 0
KSC1 150641Z 15006KT 20/14 A2997 RMK A01 T02000142  RH  069%=      5-min Rain = 0
KSC1 150642Z 15006KT 20/14 A2997 RMK A01 T02000141  RH  069%=      5-min Rain = 0
KSC1 150643Z 15007KT 20/14 A2997 RMK A01 T02000141  RH  069%=      5-min Rain = 0
KSC1 150644Z 16007KT 20/14 A2997 RMK A01 T02000141  RH  069%=      5-min Rain = 0
KSC1 150645Z 16007KT 20/14 A2997 RMK A01 T02000141  RH  069%=      5-min Rain = 0
KSC1 150646Z 16007KT 20/14 A2997 RMK A01 T02000141  RH  069%=      5-min Rain = 0
KSC1 150647Z 15006KT 20/14 A2997 RMK A01 T01990140  RH  069%=      5-min Rain = 0
KSC1 150648Z 16006KT 20/14 A2997 RMK A01 T02000141  RH  069%=      5-min Rain = 0
KSC1 150649Z 16006KT 20/14 A2997 RMK A01 T02000141  RH  069%=      5-min Rain = 0
KSC1 150650Z 16006KT 20/14 A2997 RMK A01 T01990141  RH  069%=      5-min Rain = 0
KSC1 150651Z 16007KT 20/14 A2997 RMK A01 T01990141  RH  069%=      5-min Rain = 0
KSC1 150652Z 16007KT 20/14 A2997 RMK A01 T01990141  RH  069%=      5-min Rain = 0
KSC1 150653Z 17008KT 20/14 A2997 RMK A01 T01990140  RH  069%=      5-min Rain = 0
KSC1 150654Z 16008KT 20/14 A2997 RMK A01 T01990140  RH  068%=      5-min Rain = 0
KSC1 150655Z 16009KT 20/14 A2996 RMK A01 T01990139  RH  068%=      5-min Rain = 0
KSC1 150656Z 16009KT 20/14 A2996 RMK A01 T02000139  RH  068%=      5-min Rain = 0
KSC1 150657Z 16007KT 20/14 A2996 RMK A01 T02000139  RH  068%=      5-min Rain = 0
KSC1 150658Z 16008KT 20/14 A2997 RMK A01 T02000139  RH  068%=      5-min Rain = 0
KSC1 150659Z 16009KT 20/14 A2996 RMK A01 T02000138  RH  068%=      5-min Rain = 0
KSC1 150700Z 16008KT 20/14 A2997 RMK A01 T02000138  RH  067%=      5-min Rain = 0
KSC1 150701Z 16009KT 20/14 A2997 RMK A01 T02000137  RH  067%=      5-min Rain = 0
KSC1 150702Z 16009KT 20/14 A2997 RMK A01 T02010137  RH  067%=      5-min Rain = 0
KSC1 150703Z 16010KT 20/14 A2996 RMK A01 T02010137  RH  066%=      5-min Rain = 0
KSC1 150704Z 16010KT 20/14 A2996 RMK A01 T02010137  RH  066%=      5-min Rain = 0
KSC1 150705Z 16010KT 20/14 A2996 RMK A01 T02020136  RH  066%=      5-min Rain = 0
KSC1 150706Z 16008KT 20/14 A2996 RMK A01 T02020135  RH  065%=      5-min Rain = 0
KSC1 150707Z 16009KT 20/14 A2996 RMK A01 T02020136  RH  065%=      5-min Rain = 0
KSC1 150708Z 16009KT 20/14 A2996 RMK A01 T02020135  RH  065%=      5-min Rain = 0
KSC1 150709Z 16009KT 20/14 A2996 RMK A01 T02020135  RH  065%=      5-min Rain = 0
KSC1 150710Z 16009KT 20/14 A2996 RMK A01 T02020135  RH  065%=      5-min Rain = 0
KSC1 150711Z 17007KT 20/14 A2996 RMK A01 T02020135  RH  065%=      5-min Rain = 0
KSC1 150712Z 16008KT 20/14 A2996 RMK A01 T02020135  RH  066%=      5-min Rain = 0
KSC1 150713Z 17008KT 20/14 A2996 RMK A01 T02010135  RH  066%=      5-min Rain = 0
KSC1 150714Z 17009KT 20/14 A2996 RMK A01 T02010135  RH  065%=      5-min Rain = 0
KSC1 150715Z 17008KT 20/14 A2996 RMK A01 T02020135  RH  065%=      5-min Rain = 0
KSC1 150716Z 16009KT 20/13 A2996 RMK A01 T02010134  RH  065%=      5-min Rain = 0
KSC1 150717Z 16009KT 20/13 A2996 RMK A01 T02010134  RH  065%=      5-min Rain = 0
KSC1 150718Z 17008KT 20/13 A2996 RMK A01 T02010133  RH  065%=      5-min Rain = 0
KSC1 150719Z 16010KT 20/13 A2996 RMK A01 T02020133  RH  065%=      5-min Rain = 0
KSC1 150720Z 16009KT 20/13 A2996 RMK A01 T02020132  RH  064%=      5-min Rain = 0
KSC1 150721Z 16009KT 20/13 A2995 RMK A01 T02030132  RH  064%=      5-min Rain = 0
KSC1 150722Z 16008KT 20/13 A2995 RMK A01 T02030132  RH  064%=      5-min Rain = 0
KSC1 150723Z 16008KT 20/13 A2995 RMK A01 T02030132  RH  064%=      5-min Rain = 0
KSC1 150724Z 16010KT 20/13 A2995 RMK A01 T02030132  RH  064%=      5-min Rain = 0
KSC1 150725Z 17009KT 20/13 A2995 RMK A01 T02030131  RH  063%=      5-min Rain = 0
KSC1 150726Z 17009KT 20/13 A2995 RMK A01 T02040131  RH  063%=      5-min Rain = 0
KSC1 150727Z 16008KT 21/13 A2995 RMK A01 T02050131  RH  063%=      5-min Rain = 0
KSC1 150728Z 16007KT 21/13 A2995 RMK A01 T02050131  RH  062%=      5-min Rain = 0
KSC1 150729Z 16009KT 21/13 A2995 RMK A01 T02050131  RH  062%=      5-min Rain = 0
KSC1 150730Z 16008KT 21/13 A2995 RMK A01 T02050131  RH  062%=      5-min Rain = 0
KSC1 150731Z 16010G15KT 21/13 A2995 RMK A01 T02050131  RH  062%=      5-min Rain = 0
KSC1 150732Z 16009KT 21/13 A2995 RMK A01 T02050131  RH  062%=      5-min Rain = 0
KSC1 150733Z 16008KT 21/13 A2995 RMK A01 T02050131  RH  062%=      5-min Rain = 0
KSC1 150734Z 16008KT 21/13 A2995 RMK A01 T02050131  RH  062%=      5-min Rain = 0
KSC1 150735Z 16008KT 21/13 A2995 RMK A01 T02060131  RH  062%=      5-min Rain = 0
KSC1 150736Z 16008KT 21/13 A2995 RMK A01 T02050130  RH  062%=      5-min Rain = 0
KSC1 150737Z 16008KT 21/13 A2995 RMK A01 T02050130  RH  062%=      5-min Rain = 0
KSC1 150738Z 17008KT 21/13 A2995 RMK A01 T02050130  RH  062%=      5-min Rain = 0
KSC1 150739Z 17007KT 21/13 A2995 RMK A01 T02050130  RH  062%=      5-min Rain = 0
KSC1 150740Z 17008KT 21/13 A2995 RMK A01 T02050130  RH  062%=      5-min Rain = 0
KSC1 150741Z 18007KT 21/13 A2994 RMK A01 T02050130  RH  062%=      5-min Rain = 0
KSC1 150742Z 18008KT 21/13 A2994 RMK A01 T02050130  RH  062%=      5-min Rain = 0
KSC1 150743Z 17009KT 21/13 A2994 RMK A01 T02050130  RH  062%=      5-min Rain = 0
KSC1 150744Z 17008KT 21/13 A2994 RMK A01 T02050131  RH  062%=      5-min Rain = 0
KSC1 150745Z 17010KT 21/13 A2994 RMK A01 T02050131  RH  062%=      5-min Rain = 0
KSC1 150746Z 17009KT 21/13 A2994 RMK A01 T02060131  RH  062%=      5-min Rain = 0
KSC1 150747Z 17009G14KT 21/13 A2994 RMK A01 T02060131  RH  062%=      5-min Rain = 0
KSC1 150748Z 17011KT 21/13 A2994 RMK A01 T02070130  RH  062%=      5-min Rain = 0
KSC1 150749Z 18009KT 21/13 A2994 RMK A01 T02080130  RH  061%=      5-min Rain = 0
KSC1 150750Z 17011KT 21/13 A2994 RMK A01 T02080130  RH  061%=      5-min Rain = 0
KSC1 150751Z 18009KT 21/13 A2994 RMK A01 T02080130  RH  061%=      5-min Rain = 0
KSC1 150752Z 17010KT 21/13 A2994 RMK A01 T02080129  RH  060%=      5-min Rain = 0
KSC1 150753Z 17008KT 21/13 A2994 RMK A01 T02080129  RH  060%=      5-min Rain = 0
KSC1 150754Z 17009KT 21/13 A2994 RMK A01 T02080129  RH  060%=      5-min Rain = 0
KSC1 150755Z 17008KT 21/13 A2994 RMK A01 T02080129  RH  061%=      5-min Rain = 0
KSC1 150756Z 17008KT 21/13 A2994 RMK A01 T02080129  RH  061%=      5-min Rain = 0
KSC1 150757Z 17009KT 21/13 A2994 RMK A01 T02070129  RH  061%=      5-min Rain = 0
KSC1 150758Z 17010KT 21/13 A2994 RMK A01 T02070129  RH  061%=      5-min Rain = 0
KSC1 150759Z 17010KT 21/13 A2994 RMK A01 T02070129  RH  061%=      5-min Rain = 0
KSC1 150800Z 17011KT 21/13 A2994 RMK A01 T02070128  RH  060%=      5-min Rain = 0
KSC1 150801Z 17010KT 21/13 A2994 RMK A01 T02080128  RH  060%=      5-min Rain = 0
KSC1 150802Z 17010G15KT 21/13 A2994 RMK A01 T02080128  RH  060%=      5-min Rain = 0
KSC1 150803Z 17009KT 21/13 A2994 RMK A01 T02080128  RH  060%=      5-min Rain = 0
KSC1 150804Z 17010KT 21/13 A2994 RMK A01 T02080128  RH  060%=      5-min Rain = 0
KSC1 150805Z 16010KT 21/13 A2994 RMK A01 T02080128  RH  060%=      5-min Rain = 0
KSC1 150806Z 16010KT 21/13 A2994 RMK A01 T02080128  RH  060%=      5-min Rain = 0
KSC1 150807Z 17010KT 21/13 A2994 RMK A01 T02080128  RH  060%=      5-min Rain = 0
KSC1 150808Z 17012KT 21/13 A2993 RMK A01 T02090128  RH  060%=      5-min Rain = 0
KSC1 150809Z 17010KT 21/13 A2993 RMK A01 T02090128  RH  060%=      5-min Rain = 0
KSC1 150810Z 17009KT 21/13 A2993 RMK A01 T02090128  RH  060%=      5-min Rain = 0
KSC1 150811Z 17011KT 21/13 A2993 RMK A01 T02090128  RH  060%=      5-min Rain = 0
KSC1 150812Z 17012KT 21/13 A2993 RMK A01 T02090128  RH  059%=      5-min Rain = 0
KSC1 150813Z 17010KT 21/13 A2993 RMK A01 T02100128  RH  059%=      5-min Rain = 0
KSC1 150814Z 16011KT 21/13 A2993 RMK A01 T02100128  RH  059%=      5-min Rain = 0
KSC1 150815Z 16011KT 21/13 A2994 RMK A01 T02100127  RH  059%=      5-min Rain = 0
KSC1 150816Z 17008KT 21/13 A2994 RMK A01 T02110127  RH  059%=      5-min Rain = 0
KSC1 150817Z 17009KT 21/13 A2994 RMK A01 T02100127  RH  059%=      5-min Rain = 0
KSC1 150818Z 17010KT 21/13 A2993 RMK A01 T02100127  RH  059%=      5-min Rain = 0
KSC1 150819Z 17010KT 21/13 A2993 RMK A01 T02090127  RH  059%=      5-min Rain = 0
KSC1 150820Z 17010KT 21/13 A2993 RMK A01 T02090127  RH  059%=      5-min Rain = 0
KSC1 150821Z 17009KT 21/13 A2993 RMK A01 T02090127  RH  059%=      5-min Rain = 0
KSC1 150822Z 17009KT 21/13 A2993 RMK A01 T02080127  RH  059%=      5-min Rain = 0
KSC1 150823Z 17009KT 21/13 A2993 RMK A01 T02080126  RH  060%=      5-min Rain = 0
KSC1 150824Z 17009KT 21/13 A2993 RMK A01 T02080126  RH  060%=      5-min Rain = 0
KSC1 150825Z 17007KT 21/13 A2993 RMK A01 T02070126  RH  060%=      5-min Rain = 0
KSC1 150826Z 18010KT 21/13 A2993 RMK A01 T02070126  RH  060%=      5-min Rain = 0
KSC1 150827Z 17009KT 21/13 A2993 RMK A01 T02070127  RH  060%=      5-min Rain = 0
KSC1 150828Z 18011KT 21/13 A2993 RMK A01 T02080127  RH  060%=      5-min Rain = 0
KSC1 150829Z 17012KT 21/13 A2993 RMK A01 T02080127  RH  060%=      5-min Rain = 0
KSC1 150830Z 17011G16KT 21/13 A2993 RMK A01 T02070127  RH  060%=      5-min Rain = 0
KSC1 150831Z 17010KT 21/13 A2993 RMK A01 T02070128  RH  060%=      5-min Rain = 0
KSC1 150832Z 17011KT 21/13 A2992 RMK A01 T02070128  RH  060%=      5-min Rain = 0
KSC1 150833Z 17012KT 21/13 A2992 RMK A01 T02070128  RH  061%=      5-min Rain = 0
KSC1 150834Z 17011KT 21/13 A2992 RMK A01 T02070128  RH  061%=      5-min Rain = 0
KSC1 150835Z 17011KT 21/13 A2992 RMK A01 T02060128  RH  061%=      5-min Rain = 0
KSC1 150836Z 17012KT 21/13 A2992 RMK A01 T02060128  RH  061%=      5-min Rain = 0
KSC1 150837Z 17010KT 21/13 A2992 RMK A01 T02060128  RH  061%=      5-min Rain = 0
KSC1 150838Z 17011KT 21/13 A2992 RMK A01 T02050128  RH  061%=      5-min Rain = 0
KSC1 150839Z 16010G15KT 21/13 A2992 RMK A01 T02060128  RH  061%=      5-min Rain = 0
KSC1 150840Z 16011KT 21/13 A2992 RMK A01 T02060128  RH  061%=      5-min Rain = 0
KSC1 150841Z 17011KT 21/13 A2992 RMK A01 T02050128  RH  061%=      5-min Rain = 0
KSC1 150842Z 17011KT 21/13 A2992 RMK A01 T02050129  RH  061%=      5-min Rain = 0
KSC1 150843Z 17010KT 21/13 A2992 RMK A01 T02050129  RH  061%=      5-min Rain = 0
KSC1 150844Z 17009KT 21/13 A2992 RMK A01 T02050129  RH  061%=      5-min Rain = 0
KSC1 150845Z 17010KT 21/13 A2992 RMK A01 T02050129  RH  062%=      5-min Rain = 0
KSC1 150846Z 17009KT 20/13 A2992 RMK A01 T02040128  RH  062%=      5-min Rain = 0
KSC1 150847Z 17009KT 20/13 A2992 RMK A01 T02040129  RH  062%=      5-min Rain = 0
KSC1 150848Z 17009KT 20/13 A2992 RMK A01 T02040129  RH  062%=      5-min Rain = 0
KSC1 150849Z 17009KT 20/13 A2992 RMK A01 T02040129  RH  062%=      5-min Rain = 0
KSC1 150850Z 17009KT 20/13 A2992 RMK A01 T02040129  RH  062%=      5-min Rain = 0
KSC1 150851Z 17009G14KT 20/13 A2992 RMK A01 T02040129  RH  062%=      5-min Rain = 0
KSC1 150852Z 17010KT 20/13 A2992 RMK A01 T02030129  RH  062%=      5-min Rain = 0
KSC1 150853Z 17009KT 20/13 A2992 RMK A01 T02030129  RH  062%=      5-min Rain = 0
KSC1 150854Z 17009KT 20/13 A2992 RMK A01 T02030129  RH  062%=      5-min Rain = 0
KSC1 150855Z 17008KT 20/13 A2992 RMK A01 T02020129  RH  063%=      5-min Rain = 0
KSC1 150856Z 17010KT 20/13 A2992 RMK A01 T02020129  RH  063%=      5-min Rain = 0
KSC1 150857Z 17009KT 20/13 A2993 RMK A01 T02020129  RH  063%=      5-min Rain = 0
KSC1 150858Z 17010KT 20/13 A2993 RMK A01 T02010129  RH  063%=      5-min Rain = 0
KSC1 150859Z 17009KT 20/13 A2993 RMK A01 T02010129  RH  063%=      5-min Rain = 0
KSC1 150900Z 17009KT 20/13 A2993 RMK A01 T02010129  RH  063%=      5-min Rain = 0
KSC1 150901Z 17010KT 20/13 A2993 RMK A01 T02010129  RH  063%=      5-min Rain = 0
KSC1 150902Z 17010G15KT 20/13 A2993 RMK A01 T02010129  RH  063%=      5-min Rain = 0
KSC1 150903Z 17011KT 20/13 A2993 RMK A01 T02010129  RH  063%=      5-min Rain = 0
KSC1 150904Z 18010KT 20/13 A2993 RMK A01 T02010129  RH  063%=      5-min Rain = 0
KSC1 150905Z 18011KT 20/13 A2993 RMK A01 T02010129  RH  063%=      5-min Rain = 0
KSC1 150906Z 18010KT 20/13 A2993 RMK A01 T02010129  RH  063%=      5-min Rain = 0
KSC1 150907Z 17012KT 20/13 A2993 RMK A01 T02010129  RH  063%=      5-min Rain = 0
KSC1 150908Z 18010KT 20/13 A2993 RMK A01 T02010128  RH  063%=      5-min Rain = 0
KSC1 150909Z 17010KT 20/13 A2993 RMK A01 T02010129  RH  063%=      5-min Rain = 0
KSC1 150910Z 17010KT 20/13 A2993 RMK A01 T02010128  RH  063%=      5-min Rain = 0
KSC1 150911Z 17009G14KT 20/13 A2993 RMK A01 T02010128  RH  063%=      5-min Rain = 0
KSC1 150912Z 17011KT 20/13 A2993 RMK A01 T02010128  RH  063%=      5-min Rain = 0
KSC1 150913Z 17011KT 20/13 A2992 RMK A01 T02020129  RH  063%=      5-min Rain = 0
KSC1 150914Z 17013KT 20/13 A2992 RMK A01 T02030129  RH  063%=      5-min Rain = 0
KSC1 150915Z 17012KT 20/13 A2992 RMK A01 T02030129  RH  062%=      5-min Rain = 0
KSC1 150916Z 17012KT 20/13 A2993 RMK A01 T02030129  RH  062%=      5-min Rain = 0
KSC1 150917Z 17012KT 20/13 A2992 RMK A01 T02040129  RH  062%=      5-min Rain = 0
KSC1 150918Z 17012KT 20/13 A2993 RMK A01 T02040129  RH  062%=      5-min Rain = 0
KSC1 150919Z 17012KT 20/13 A2993 RMK A01 T02040128  RH  062%=      5-min Rain = 0
KSC1 150920Z 18012KT 20/13 A2993 RMK A01 T02040129  RH  062%=      5-min Rain = 0
KSC1 150921Z 18010KT 20/13 A2993 RMK A01 T02040129  RH  062%=      5-min Rain = 0
KSC1 150922Z 17009KT 20/13 A2993 RMK A01 T02040129  RH  062%=      5-min Rain = 0
KSC1 150923Z 17010KT 20/13 A2993 RMK A01 T02030130  RH  062%=      5-min Rain = 0
KSC1 150924Z 18011KT 20/13 A2993 RMK A01 T02030130  RH  063%=      5-min Rain = 0
KSC1 150925Z 18012G17KT 20/13 A2993 RMK A01 T02030130  RH  063%=      5-min Rain = 0
KSC1 150926Z 18010KT 20/13 A2993 RMK A01 T02040131  RH  063%=      5-min Rain = 0
KSC1 150927Z 18012KT 21/13 A2993 RMK A01 T02050131  RH  063%=      5-min Rain = 0
KSC1 150928Z 18011KT 21/13 A2993 RMK A01 T02050132  RH  063%=      5-min Rain = 0
KSC1 150929Z 18011KT 21/13 A2993 RMK A01 T02060132  RH  063%=      5-min Rain = 0
KSC1 150930Z 18014KT 21/13 A2993 RMK A01 T02060132  RH  062%=      5-min Rain = 0
KSC1 150931Z 18012G17KT 21/13 A2993 RMK A01 T02060133  RH  063%=      5-min Rain = 0
KSC1 150932Z 18010G16KT 21/13 A2993 RMK A01 T02060133  RH  063%=      5-min Rain = 0
KSC1 150933Z 18012KT 21/13 A2993 RMK A01 T02070133  RH  063%=      5-min Rain = 0
KSC1 150934Z 18013KT 21/13 A2993 RMK A01 T02070134  RH  063%=      5-min Rain = 0
KSC1 150935Z 18012KT 21/13 A2993 RMK A01 T02070134  RH  063%=      5-min Rain = 0
KSC1 150936Z 18012G17KT 21/13 A2993 RMK A01 T02070134  RH  063%=      5-min Rain = 0
KSC1 150937Z 18011KT 21/13 A2993 RMK A01 T02070134  RH  063%=      5-min Rain = 0
KSC1 150938Z 18011KT 21/14 A2993 RMK A01 T02080135  RH  063%=      5-min Rain = 0
KSC1 150939Z 18012KT 21/14 A2993 RMK A01 T02070135  RH  063%=      5-min Rain = 0
KSC1 150940Z 18012KT 21/14 A2993 RMK A01 T02080136  RH  063%=      5-min Rain = 0
KSC1 150941Z 18011KT 21/14 A2993 RMK A01 T02070136  RH  064%=      5-min Rain = 0
KSC1 150942Z 18013KT 21/14 A2993 RMK A01 T02080136  RH  064%=      5-min Rain = 0
KSC1 150943Z 18013KT 21/14 A2993 RMK A01 T02070137  RH  064%=      5-min Rain = 0
KSC1 150944Z 18012KT 21/14 A2993 RMK A01 T02080137  RH  064%=      5-min Rain = 0
KSC1 150945Z 18012G17KT 21/14 A2993 RMK A01 T02080137  RH  064%=      5-min Rain = 0
KSC1 150946Z 18011KT 21/14 A2993 RMK A01 T02080138  RH  064%=      5-min Rain = 0
KSC1 150947Z 18009KT 21/14 A2993 RMK A01 T02080138  RH  064%=      5-min Rain = 0
KSC1 150948Z 17010KT 21/14 A2993 RMK A01 T02070138  RH  065%=      5-min Rain = 0
KSC1 150949Z 17009KT 21/14 A2993 RMK A01 T02070139  RH  065%=      5-min Rain = 0
KSC1 150950Z 18010KT 21/14 A2993 RMK A01 T02070139  RH  065%=      5-min Rain = 0
KSC1 150956Z 18011KT 21/14 A2993 RMK A01 T02050139  RH  066%=      5-min Rain = 0
KSC1 150957Z 18010KT 21/14 A2993 RMK A01 T02050139  RH  066%=      5-min Rain = 0
KSC1 150958Z 18009KT 21/14 A2993 RMK A01 T02050140  RH  066%=      5-min Rain = 0
KSC1 150959Z 18009G15KT 21/14 A2993 RMK A01 T02050140  RH  067%=      5-min Rain = 0
KSC1 151000Z 18011KT 21/14 A2993 RMK A01 T02050141  RH  067%=      5-min Rain = 0
KSC1 151001Z 18011KT 21/14 A2993 RMK A01 T02050142  RH  067%=      5-min Rain = 0
KSC1 151002Z 19012KT 21/14 A2993 RMK A01 T02050142  RH  067%=      5-min Rain = 0
KSC1 151003Z 18011KT 21/14 A2992 RMK A01 T02060142  RH  067%=      5-min Rain = 0
KSC1 151004Z 18010KT 21/14 A2992 RMK A01 T02060142  RH  067%=      5-min Rain = 0
KSC1 151005Z 18009G14KT 21/14 A2992 RMK A01 T02060142  RH  067%=      5-min Rain = 0
KSC1 151006Z 18010KT 21/14 A2992 RMK A01 T02060142  RH  067%=      5-min Rain = 0
KSC1 151007Z 18011KT 21/14 A2992 RMK A01 T02060142  RH  067%=      5-min Rain = 0
KSC1 151008Z 18010KT 21/14 A2992 RMK A01 T02060142  RH  067%=      5-min Rain = 0
KSC1 151009Z 17010KT 21/14 A2992 RMK A01 T02050142  RH  067%=      5-min Rain = 0
KSC1 151010Z 17008KT 21/14 A2992 RMK A01 T02050142  RH  067%=      5-min Rain = 0
KSC1 151011Z 17008KT 21/14 A2992 RMK A01 T02050142  RH  067%=      5-min Rain = 0
KSC1 151012Z 16008KT 21/14 A2992 RMK A01 T02050142  RH  067%=      5-min Rain = 0
KSC1 151013Z 16006KT 20/14 A2992 RMK A01 T02040142  RH  067%=      5-min Rain = 0
KSC1 151014Z 17005KT 20/14 A2992 RMK A01 T02030141  RH  067%=      5-min Rain = 0
KSC1 151015Z 17007KT 20/14 A2992 RMK A01 T02030141  RH  068%=      5-min Rain = 0
KSC1 151016Z 18005KT 20/14 A2993 RMK A01 T02030141  RH  068%=      5-min Rain = 0
KSC1 151017Z 18005KT 20/14 A2993 RMK A01 T02020141  RH  068%=      5-min Rain = 0
KSC1 151018Z 19007KT 20/14 A2993 RMK A01 T02020141  RH  068%=      5-min Rain = 0
KSC1 151019Z 19005KT 20/14 A2993 RMK A01 T02020142  RH  068%=      5-min Rain = 0
KSC1 151020Z 18006KT 20/14 A2993 RMK A01 T02020142  RH  068%=      5-min Rain = 0
KSC1 151021Z 19007KT 20/14 A2993 RMK A01 T02020143  RH  069%=      5-min Rain = 0
KSC1 151022Z 19008KT 20/14 A2993 RMK A01 T02020143  RH  069%=      5-min Rain = 0
KSC1 151023Z 21003KT 20/14 A2993 RMK A01 T02030143  RH  068%=      5-min Rain = 0
KSC1 151024Z 21003KT 20/14 A2993 RMK A01 T02030142  RH  068%=      5-min Rain = 0
KSC1 151025Z 19004KT 20/14 A2993 RMK A01 T02030142  RH  068%=      5-min Rain = 0
KSC1 151026Z 23003KT 20/14 A2993 RMK A01 T02020142  RH  068%=      5-min Rain = 0
KSC1 151027Z 20003KT 20/14 A2993 RMK A01 T02010141  RH  068%=      5-min Rain = 0
KSC1 151028Z 19002KT 20/14 A2993 RMK A01 T02010141  RH  068%=      5-min Rain = 0
KSC1 151029Z 24001KT 20/14 A2993 RMK A01 T02000141  RH  068%=      5-min Rain = 0
KSC1 151030Z 27001KT 20/14 A2993 RMK A01 T02000140  RH  069%=      5-min Rain = 0
KSC1 151031Z 21002KT 20/14 A2993 RMK A01 T01990140  RH  069%=      5-min Rain = 0
KSC1 151032Z 30003KT 20/14 A2993 RMK A01 T01990140  RH  069%=      5-min Rain = 0
KSC1 151033Z 32002KT 20/14 A2993 RMK A01 T01990141  RH  069%=      5-min Rain = 0
KSC1 151034Z 32003KT 20/14 A2993 RMK A01 T01980141  RH  069%=      5-min Rain = 0
KSC1 151035Z 30000KT 20/14 A2993 RMK A01 T01970140  RH  069%=      5-min Rain = 0
KSC1 151036Z 26002KT 20/14 A2993 RMK A01 T01960139  RH  070%=      5-min Rain = 0
KSC1 151037Z 25003KT 20/14 A2994 RMK A01 T01950138  RH  070%=      5-min Rain = 0
KSC1 151038Z 24004KT 20/14 A2994 RMK A01 T01950138  RH  070%=      5-min Rain = 0
KSC1 151039Z 27002KT 20/14 A2994 RMK A01 T01950138  RH  070%=      5-min Rain = 0
KSC1 151040Z 29001KT 20/14 A2994 RMK A01 T01950137  RH  069%=      5-min Rain = 0
KSC1 151041Z 27003KT 19/14 A2994 RMK A01 T01940137  RH  069%=      5-min Rain = 0
KSC1 151042Z 29002KT 19/14 A2994 RMK A01 T01940137  RH  069%=      5-min Rain = 0
KSC1 151043Z 28001KT 19/14 A2994 RMK A01 T01940137  RH  070%=      5-min Rain = 0
KSC1 151044Z 29001KT 19/14 A2994 RMK A01 T01930136  RH  070%=      5-min Rain = 0
KSC1 151045Z 27003KT 19/14 A2994 RMK A01 T01930136  RH  070%=      5-min Rain = 0
KSC1 151046Z 30002KT 19/14 A2994 RMK A01 T01930136  RH  070%=      5-min Rain = 0
KSC1 151047Z 26002KT 19/14 A2994 RMK A01 T01930136  RH  070%=      5-min Rain = 0
KSC1 151048Z 24002KT 19/14 A2994 RMK A01 T01920136  RH  070%=      5-min Rain = 0
KSC1 151049Z 25003KT 19/14 A2994 RMK A01 T01920135  RH  070%=      5-min Rain = 0
KSC1 151050Z 24003KT 19/14 A2994 RMK A01 T01910136  RH  070%=      5-min Rain = 0
KSC1 151051Z 24003KT 19/14 A2994 RMK A01 T01910135  RH  070%=      5-min Rain = 0
KSC1 151052Z 24003KT 19/14 A2994 RMK A01 T01900136  RH  071%=      5-min Rain = 0
KSC1 151053Z 24003KT 19/14 A2994 RMK A01 T01900136  RH  071%=      5-min Rain = 0
KSC1 151054Z 23004KT 19/14 A2994 RMK A01 T01910136  RH  071%=      5-min Rain = 0
KSC1 151055Z 22004KT 19/14 A2993 RMK A01 T01910136  RH  070%=      5-min Rain = 0
KSC1 151056Z 25003KT 19/14 A2993 RMK A01 T01910136  RH  071%=      5-min Rain = 0
KSC1 151057Z 23002KT 19/14 A2993 RMK A01 T01910137  RH  071%=      5-min Rain = 0
KSC1 151058Z 24003KT 19/14 A2993 RMK A01 T01910137  RH  071%=      5-min Rain = 0
KSC1 151059Z 24003KT 19/14 A2993 RMK A01 T01900137  RH  071%=      5-min Rain = 0
KSC1 151100Z 22003KT 19/14 A2993 RMK A01 T01900137  RH  071%=      5-min Rain = 0
KSC1 151101Z 22003KT 19/14 A2993 RMK A01 T01900138  RH  071%=      5-min Rain = 0
KSC1 151102Z 21004KT 19/14 A2993 RMK A01 T01900138  RH  072%=      5-min Rain = 0
KSC1 151103Z 21003KT 19/14 A2993 RMK A01 T01900138  RH  072%=      5-min Rain = 0
KSC1 151104Z 24002KT 19/14 A2993 RMK A01 T01910139  RH  072%=      5-min Rain = 0
KSC1 151105Z 23002KT 19/14 A2993 RMK A01 T01910138  RH  071%=      5-min Rain = 0
KSC1 151106Z 15002KT 19/14 A2993 RMK A01 T01910139  RH  072%=      5-min Rain = 0
KSC1 151107Z 22002KT 19/14 A2994 RMK A01 T01900140  RH  073%=      5-min Rain = 0
KSC1 151108Z 13001KT 19/14 A2994 RMK A01 T01900140  RH  072%=      5-min Rain = 0
KSC1 151109Z 12001KT 19/14 A2994 RMK A01 T01900140  RH  072%=      5-min Rain = 0
KSC1 151110Z 06001KT 19/14 A2994 RMK A01 T01900139  RH  072%=      5-min Rain = 0
KSC1 151111Z 04002KT 19/14 A2994 RMK A01 T01890137  RH  072%=      5-min Rain = 0
KSC1 151112Z 04003KT 19/14 A2994 RMK A01 T01870137  RH  072%=      5-min Rain = 0
KSC1 151113Z 04002KT 19/14 A2994 RMK A01 T01860136  RH  073%=      5-min Rain = 0
KSC1 151114Z 04003KT 19/14 A2994 RMK A01 T01850136  RH  073%=      5-min Rain = 0
KSC1 151115Z 02003KT 18/14 A2994 RMK A01 T01840136  RH  073%=      5-min Rain = 0
KSC1 151116Z 03003KT 18/14 A2994 RMK A01 T01830136  RH  074%=      5-min Rain = 0
KSC1 151117Z 02002KT 18/14 A2994 RMK A01 T01830136  RH  074%=      5-min Rain = 0
KSC1 151118Z 36002KT 18/14 A2994 RMK A01 T01810136  RH  075%=      5-min Rain = 0
KSC1 151119Z 01002KT 18/14 A2994 RMK A01 T01810137  RH  075%=      5-min Rain = 0
KSC1 151120Z 01001KT 18/14 A2994 RMK A01 T01810137  RH  075%=      5-min Rain = 0
KSC1 151121Z 00000KT 18/14 A2994 RMK A01 T01820136  RH  075%=      5-min Rain = 0
KSC1 151122Z 03001KT 18/14 A2994 RMK A01 T01810137  RH  075%=      5-min Rain = 0
KSC1 151123Z 02001KT 18/14 A2994 RMK A01 T01810138  RH  076%=      5-min Rain = 0
KSC1 151124Z 05000KT 18/14 A2994 RMK A01 T01810138  RH  076%=      5-min Rain = 0
KSC1 151125Z 04001KT 18/14 A2994 RMK A01 T01810136  RH  075%=      5-min Rain = 0
KSC1 151126Z 06002KT 18/14 A2994 RMK A01 T01800136  RH  075%=      5-min Rain = 0
KSC1 151127Z 05003KT 18/14 A2994 RMK A01 T01790137  RH  076%=      5-min Rain = 0
KSC1 151128Z 05002KT 18/14 A2994 RMK A01 T01780137  RH  077%=      5-min Rain = 0
KSC1 151129Z 03002KT 18/14 A2995 RMK A01 T01770136  RH  077%=      5-min Rain = 0
KSC1 151130Z 00001KT 18/14 A2995 RMK A01 T01770137  RH  077%=      5-min Rain = 0
KSC1 151131Z 36001KT 18/14 A2995 RMK A01 T01760137  RH  078%=      5-min Rain = 0
KSC1 151132Z 01001KT 18/14 A2995 RMK A01 T01760139  RH  079%=      5-min Rain = 0
KSC1 151133Z 06001KT 18/14 A2995 RMK A01 T01780141  RH  079%=      5-min Rain = 0
KSC1 151134Z 05001KT 18/14 A2995 RMK A01 T01790141  RH  078%=      5-min Rain = 0
KSC1 151135Z 07001KT 18/14 A2995 RMK A01 T01800142  RH  078%=      5-min Rain = 0
KSC1 151136Z 07001KT 18/14 A2995 RMK A01 T01810141  RH  078%=      5-min Rain = 0
KSC1 151137Z 08001KT 18/14 A2995 RMK A01 T01810141  RH  077%=      5-min Rain = 0
KSC1 151138Z 10002KT 18/14 A2995 RMK A01 T01800138  RH  076%=      5-min Rain = 0
KSC1 151139Z 10003KT 18/14 A2995 RMK A01 T01790141  RH  078%=      5-min Rain = 0
KSC1 151140Z 09003KT 18/14 A2995 RMK A01 T01790141  RH  078%=      5-min Rain = 0
KSC1 151141Z 10003KT 18/14 A2995 RMK A01 T01790140  RH  078%=      5-min Rain = 0
KSC1 151142Z 09003KT 18/14 A2995 RMK A01 T01780140  RH  078%=      5-min Rain = 0
KSC1 151143Z 08003KT 18/14 A2995 RMK A01 T01770140  RH  079%=      5-min Rain = 0
KSC1 151144Z 07003KT 18/14 A2995 RMK A01 T01770142  RH  080%=      5-min Rain = 0
KSC1 151145Z 07002KT 18/14 A2995 RMK A01 T01780142  RH  080%=      5-min Rain = 0
KSC1 151146Z 07002KT 18/14 A2995 RMK A01 T01780142  RH  079%=      5-min Rain = 0
KSC1 151147Z 07003KT 18/14 A2995 RMK A01 T01780141  RH  079%=      5-min Rain = 0
KSC1 151148Z 06003KT 18/14 A2995 RMK A01 T01780141  RH  079%=      5-min Rain = 0
KSC1 151149Z 08003KT 18/14 A2995 RMK A01 T01770140  RH  079%=      5-min Rain = 0
KSC1 151150Z 06004KT 18/14 A2995 RMK A01 T01770140  RH  079%=      5-min Rain = 0
KSC1 151151Z 07004KT 18/14 A2995 RMK A01 T01770140  RH  079%=      5-min Rain = 0
KSC1 151152Z 08004KT 18/14 A2995 RMK A01 T01770139  RH  079%=      5-min Rain = 0
KSC1 151153Z 08004KT 18/14 A2995 RMK A01 T01760137  RH  078%=      5-min Rain = 0
KSC1 151154Z 08004KT 18/14 A2995 RMK A01 T01750136  RH  078%=      5-min Rain = 0
KSC1 151155Z 07004KT 17/14 A2995 RMK A01 T01740137  RH  079%=      5-min Rain = 0
KSC1 151156Z 08003KT 17/14 A2995 RMK A01 T01740138  RH  080%=      5-min Rain = 0
KSC1 151157Z 06003KT 17/14 A2995 RMK A01 T01740138  RH  079%=      5-min Rain = 0
KSC1 151158Z 07003KT 17/14 A2996 RMK A01 T01730138  RH  080%=      5-min Rain = 0
KSC1 151159Z 07004KT 17/14 A2996 RMK A01 T01740138  RH  080%=      5-min Rain = 0
KSC1 151200Z 08003KT 17/14 A2996 RMK A01 T01730139  RH  080%=      5-min Rain = 0
KSC1 151201Z 07004KT 17/14 A2996 RMK A01 T01740139  RH  080%=      5-min Rain = 0
KSC1 151202Z 08005KT 17/14 A2996 RMK A01 T01730139  RH  080%=      5-min Rain = 0
KSC1 151203Z 08004KT 17/14 A2996 RMK A01 T01730140  RH  081%=      5-min Rain = 0
KSC1 151204Z 08006KT 17/14 A2996 RMK A01 T01740140  RH  081%=      5-min Rain = 0
KSC1 151205Z 07005KT 18/14 A2996 RMK A01 T01750140  RH  080%=      5-min Rain = 0
KSC1 151206Z 07006KT 18/14 A2996 RMK A01 T01760140  RH  080%=      5-min Rain = 0
KSC1 151207Z 06007KT 18/14 A2996 RMK A01 T01760140  RH  079%=      5-min Rain = 0
KSC1 151208Z 06006KT 18/14 A2996 RMK A01 T01760139  RH  079%=      5-min Rain = 0
KSC1 151209Z 07004KT 18/14 A2996 RMK A01 T01760140  RH  079%=      5-min Rain = 0
KSC1 151210Z 08005KT 18/14 A2996 RMK A01 T01760140  RH  079%=      5-min Rain = 0
KSC1 151211Z 08004KT 18/14 A2996 RMK A01 T01760140  RH  079%=      5-min Rain = 0
KSC1 151212Z 09004KT 18/14 A2997 RMK A01 T01760140  RH  079%=      5-min Rain = 0
KSC1 151213Z 09003KT 18/14 A2997 RMK A01 T01760140  RH  079%=      5-min Rain = 0
KSC1 151214Z 10004KT 18/14 A2997 RMK A01 T01770140  RH  079%=      5-min Rain = 0
KSC1 151215Z 11004KT 18/14 A2997 RMK A01 T01780140  RH  079%=      5-min Rain = 0
KSC1 151216Z 11004KT 18/14 A2997 RMK A01 T01780141  RH  079%=      5-min Rain = 0
KSC1 151217Z 12004KT 18/14 A2997 RMK A01 T01790142  RH  079%=      5-min Rain = 0
KSC1 151218Z 11005KT 18/14 A2997 RMK A01 T01800142  RH  078%=      5-min Rain = 0
KSC1 151219Z 12005KT 18/14 A2997 RMK A01 T01810143  RH  078%=      5-min Rain = 0
KSC1 151220Z 12005KT 18/14 A2997 RMK A01 T01820143  RH  078%=      5-min Rain = 0
KSC1 151221Z 12006KT 18/14 A2997 RMK A01 T01820144  RH  078%=      5-min Rain = 0
KSC1 151222Z 12006KT 18/14 A2997 RMK A01 T01830144  RH  078%=      5-min Rain = 0
KSC1 151223Z 14007KT 18/15 A2997 RMK A01 T01840146  RH  078%=      5-min Rain = 0
KSC1 151224Z 13006KT 19/15 A2997 RMK A01 T01860148  RH  079%=      5-min Rain = 0
KSC1 151225Z 13006KT 19/15 A2997 RMK A01 T01880149  RH  078%=      5-min Rain = 0
KSC1 151226Z 14005KT 19/15 A2997 RMK A01 T01890150  RH  078%=      5-min Rain = 0
KSC1 151227Z 14007KT 19/15 A2997 RMK A01 T01900149  RH  077%=      5-min Rain = 0
KSC1 151228Z 13006KT 19/15 A2997 RMK A01 T01910150  RH  077%=      5-min Rain = 0
KSC1 151229Z 14005KT 19/15 A2997 RMK A01 T01920150  RH  077%=      5-min Rain = 0
KSC1 151230Z 14005KT 19/15 A2997 RMK A01 T01920150  RH  076%=      5-min Rain = 0
KSC1 151231Z 14004KT 19/15 A2997 RMK A01 T01920150  RH  076%=      5-min Rain = 0
KSC1 151232Z 15006KT 19/15 A2997 RMK A01 T01930150  RH  076%=      5-min Rain = 0
KSC1 151233Z 15005KT 19/15 A2997 RMK A01 T01940152  RH  077%=      5-min Rain = 0
KSC1 151234Z 16006KT 19/15 A2997 RMK A01 T01940153  RH  077%=      5-min Rain = 0
KSC1 151235Z 16004KT 19/15 A2997 RMK A01 T01940154  RH  077%=      5-min Rain = 0
KSC1 151236Z 16004KT 20/15 A2997 RMK A01 T01950154  RH  077%=      5-min Rain = 0
KSC1 151237Z 17006KT 20/16 A2997 RMK A01 T01960155  RH  077%=      5-min Rain = 0
KSC1 151238Z 16006KT 20/16 A2997 RMK A01 T01960156  RH  078%=      5-min Rain = 0
KSC1 151239Z 16005KT 20/16 A2997 RMK A01 T01970157  RH  078%=      5-min Rain = 0
KSC1 151240Z 17006KT 20/16 A2997 RMK A01 T01970158  RH  078%=      5-min Rain = 0
KSC1 151241Z 17004KT 20/16 A2997 RMK A01 T01970159  RH  078%=      5-min Rain = 0
KSC1 151242Z 16005KT 20/16 A2997 RMK A01 T01980160  RH  079%=      5-min Rain = 0
KSC1 151243Z 17006KT 20/16 A2997 RMK A01 T01990161  RH  079%=      5-min Rain = 0
KSC1 151244Z 16006KT 20/16 A2997 RMK A01 T01990162  RH  079%=      5-min Rain = 0
KSC1 151245Z 16006KT 20/16 A2997 RMK A01 T01990163  RH  080%=      5-min Rain = 0
KSC1 151246Z 17005KT 20/17 A2997 RMK A01 T02000165  RH  080%=      5-min Rain = 0
KSC1 151247Z 16006KT 20/17 A2997 RMK A01 T02000165  RH  080%=      5-min Rain = 0
KSC1 151248Z 17006KT 20/17 A2997 RMK A01 T02010165  RH  080%=      5-min Rain = 0
KSC1 151249Z 17006KT 20/17 A2997 RMK A01 T02010165  RH  080%=      5-min Rain = 0
KSC1 151250Z 16006KT 20/17 A2997 RMK A01 T02010165  RH  080%=      5-min Rain = 0
KSC1 151251Z 17007KT 20/17 A2997 RMK A01 T02020166  RH  080%=      5-min Rain = 0
KSC1 151252Z 17007KT 20/17 A2997 RMK A01 T02020166  RH  080%=      5-min Rain = 0
KSC1 151253Z 16004KT 20/17 A2997 RMK A01 T02020166  RH  080%=      5-min Rain = 0
KSC1 151254Z 17008KT 20/17 A2997 RMK A01 T02030167  RH  080%=      5-min Rain = 0
KSC1 151255Z 18008KT 20/17 A2997 RMK A01 T02030168  RH  080%=      5-min Rain = 0
KSC1 151256Z 17006KT 20/17 A2997 RMK A01 T02030168  RH  080%=      5-min Rain = 0
KSC1 151257Z 17007KT 20/17 A2997 RMK A01 T02040168  RH  080%=      5-min Rain = 0
KSC1 151258Z 17006KT 20/17 A2997 RMK A01 T02040169  RH  080%=      5-min Rain = 0
KSC1 151259Z 17007KT 21/17 A2997 RMK A01 T02050169  RH  080%=      5-min Rain = 0
KSC1 151300Z 17007KT 21/17 A2997 RMK A01 T02050169  RH  080%=      5-min Rain = 0
KSC1 151301Z 18006KT 21/17 A2997 RMK A01 T02050169  RH  079%=      5-min Rain = 0
KSC1 151302Z 18007KT 21/17 A2997 RMK A01 T02050169  RH  079%=      5-min Rain = 0
KSC1 151303Z 18007KT 21/17 A2997 RMK A01 T02050169  RH  079%=      5-min Rain = 0
KSC1 151304Z 18008KT 21/17 A2997 RMK A01 T02050169  RH  080%=      5-min Rain = 0
KSC1 151305Z 18006KT 21/17 A2997 RMK A01 T02050169  RH  080%=      5-min Rain = 0
KSC1 151306Z 17006KT 21/17 A2997 RMK A01 T02060170  RH  080%=      5-min Rain = 0
KSC1 151307Z 18006KT 21/17 A2997 RMK A01 T02060170  RH  080%=      5-min Rain = 0
KSC1 151308Z 20005KT 21/17 A2997 RMK A01 T02060171  RH  080%=      5-min Rain = 0
KSC1 151309Z 20006KT 21/17 A2998 RMK A01 T02060171  RH  080%=      5-min Rain = 0
KSC1 151310Z 19005G10KT 21/17 A2998 RMK A01 T02060170  RH  080%=      5-min Rain = 0
KSC1 151311Z 18007KT 21/17 A2998 RMK A01 T02070171  RH  080%=      5-min Rain = 0
KSC1 151312Z 20006KT 21/17 A2998 RMK A01 T02070172  RH  080%=      5-min Rain = 0
KSC1 151313Z 19007KT 21/17 A2998 RMK A01 T02070172  RH  080%=      5-min Rain = 0
KSC1 151314Z 18007KT 21/17 A2998 RMK A01 T02070173  RH  080%=      5-min Rain = 0
KSC1 151315Z 17006KT 21/17 A2998 RMK A01 T02070173  RH  080%=      5-min Rain = 0
KSC1 151316Z 18004KT 21/17 A2998 RMK A01 T02070172  RH  080%=      5-min Rain = 0
KSC1 151317Z 18004KT 21/17 A2998 RMK A01 T02080173  RH  080%=      5-min Rain = 0
KSC1 151318Z 20004KT 21/17 A2998 RMK A01 T02080173  RH  080%=      5-min Rain = 0
KSC1 151319Z 20004KT 21/17 A2998 RMK A01 T02080173  RH  080%=      5-min Rain = 0
KSC1 151320Z 18006KT 21/17 A2998 RMK A01 T02090173  RH  080%=      5-min Rain = 0
KSC1 151321Z 17004KT 21/17 A2998 RMK A01 T02090173  RH  080%=      5-min Rain = 0
KSC1 151322Z 18003KT 21/17 A2998 RMK A01 T02100173  RH  079%=      5-min Rain = 0
KSC1 151323Z 17003KT 21/17 A2998 RMK A01 T02110173  RH  079%=      5-min Rain = 0
KSC1 151324Z 17002KT 21/17 A2998 RMK A01 T02120174  RH  079%=      5-min Rain = 0
KSC1 151325Z 19003KT 21/17 A2998 RMK A01 T02130174  RH  078%=      5-min Rain = 0
KSC1 151326Z 21004KT 21/17 A2998 RMK A01 T02140174  RH  078%=      5-min Rain = 0
KSC1 151327Z 20006KT 22/17 A2998 RMK A01 T02150174  RH  077%=      5-min Rain = 0
KSC1 151328Z 20004KT 22/18 A2998 RMK A01 T02170175  RH  077%=      5-min Rain = 0
KSC1 151329Z 18003KT 22/18 A2998 RMK A01 T02180175  RH  076%=      5-min Rain = 0
KSC1 151330Z 16004G9KT 22/18 A2998 RMK A01 T02200175  RH  076%=      5-min Rain = 0
KSC1 151331Z 17008KT 22/18 A2998 RMK A01 T02210175  RH  075%=      5-min Rain = 0
KSC1 151332Z 17007KT 22/18 A2998 RMK A01 T02210175  RH  075%=      5-min Rain = 0
KSC1 151333Z 17010KT 22/18 A2998 RMK A01 T02210175  RH  075%=      5-min Rain = 0
KSC1 151334Z 18008KT 22/18 A2998 RMK A01 T02200175  RH  075%=      5-min Rain = 0
KSC1 151335Z 18008KT 22/18 A2998 RMK A01 T02200175  RH  076%=      5-min Rain = 0
KSC1 151336Z 18008KT 22/18 A2998 RMK A01 T02210175  RH  075%=      5-min Rain = 0
KSC1 151337Z 19008KT 22/18 A2998 RMK A01 T02210175  RH  075%=      5-min Rain = 0
KSC1 151338Z 18008KT 22/18 A2998 RMK A01 T02220175  RH  075%=      5-min Rain = 0
KSC1 151339Z 18006KT 22/18 A2998 RMK A01 T02230176  RH  074%=      5-min Rain = 0
KSC1 151340Z 18005KT 22/18 A2998 RMK A01 T02240175  RH  074%=      5-min Rain = 0
KSC1 151341Z 20007KT 23/18 A2997 RMK A01 T02250176  RH  074%=      5-min Rain = 0
KSC1 151342Z 20007KT 23/18 A2997 RMK A01 T02260175  RH  073%=      5-min Rain = 0
KSC1 151343Z 20007KT 23/18 A2997 RMK A01 T02260175  RH  073%=      5-min Rain = 0
KSC1 151344Z 20005KT 23/17 A2997 RMK A01 T02260174  RH  073%=      5-min Rain = 0
KSC1 151345Z 17007KT 23/18 A2997 RMK A01 T02270176  RH  073%=      5-min Rain = 0
KSC1 151346Z 16007KT 23/18 A2997 RMK A01 T02280175  RH  072%=      5-min Rain = 0
KSC1 151347Z 19009KT 23/17 A2997 RMK A01 T02280174  RH  072%=      5-min Rain = 0
KSC1 151348Z 18006KT 23/18 A2997 RMK A01 T02280175  RH  072%=      5-min Rain = 0
KSC1 151349Z 17007KT 23/18 A2997 RMK A01 T02280175  RH  072%=      5-min Rain = 0
KSC1 151350Z 20008KT 23/18 A2997 RMK A01 T02300175  RH  071%=      5-min Rain = 0
KSC1 151351Z 19006KT 23/18 A2997 RMK A01 T02300175  RH  071%=      5-min Rain = 0
KSC1 151352Z 18007KT 23/18 A2998 RMK A01 T02300175  RH  071%=      5-min Rain = 0
KSC1 151353Z 16007KT 23/17 A2997 RMK A01 T02310174  RH  070%=      5-min Rain = 0
KSC1 151354Z 17007KT 23/17 A2997 RMK A01 T02310174  RH  071%=      5-min Rain = 0
KSC1 151355Z 18009KT 23/17 A2997 RMK A01 T02310174  RH  070%=      5-min Rain = 0
KSC1 151356Z 17011KT 23/17 A2997 RMK A01 T02310174  RH  070%=      5-min Rain = 0
KSC1 151357Z 18009KT 23/17 A2997 RMK A01 T02300174  RH  070%=      5-min Rain = 0
KSC1 151358Z 17007KT 23/17 A2997 RMK A01 T02300174  RH  071%=      5-min Rain = 0
KSC1 151359Z 18007KT 23/17 A2997 RMK A01 T02300174  RH  071%=      5-min Rain = 0
KSC1 151400Z 16007KT 23/17 A2997 RMK A01 T02300173  RH  071%=      5-min Rain = 0
KSC1 151401Z 16010KT 23/17 A2997 RMK A01 T02310173  RH  070%=      5-min Rain = 0
KSC1 151402Z 17006KT 23/17 A2998 RMK A01 T02310173  RH  070%=      5-min Rain = 0
KSC1 151403Z 16006KT 23/18 A2998 RMK A01 T02320175  RH  070%=      5-min Rain = 0
KSC1 151404Z 17006KT 24/18 A2998 RMK A01 T02350175  RH  069%=      5-min Rain = 0
KSC1 151405Z 18008KT 24/18 A2998 RMK A01 T02370175  RH  068%=      5-min Rain = 0
KSC1 151406Z 18010KT 24/17 A2998 RMK A01 T02370173  RH  067%=      5-min Rain = 0
KSC1 151407Z 18008KT 24/17 A2998 RMK A01 T02360173  RH  068%=      5-min Rain = 0
KSC1 151408Z 19010KT 24/17 A2998 RMK A01 T02370174  RH  068%=      5-min Rain = 0
KSC1 151409Z 19009KT 24/17 A2998 RMK A01 T02360173  RH  067%=      5-min Rain = 0
KSC1 151410Z 18008KT 24/17 A2998 RMK A01 T02360173  RH  067%=      5-min Rain = 0
KSC1 151411Z 18007KT 24/17 A2998 RMK A01 T02360173  RH  067%=      5-min Rain = 0
KSC1 151412Z 17009KT 24/17 A2998 RMK A01 T02370173  RH  067%=      5-min Rain = 0
KSC1 151413Z 18007KT 24/17 A2997 RMK A01 T02380173  RH  067%=      5-min Rain = 0
KSC1 151414Z 18006KT 24/17 A2997 RMK A01 T02370172  RH  067%=      5-min Rain = 0
KSC1 151415Z 16005KT 24/17 A2997 RMK A01 T02390174  RH  067%=      5-min Rain = 0
KSC1 151416Z 16009KT 24/18 A2997 RMK A01 T02420175  RH  066%=      5-min Rain = 0
KSC1 151417Z 17010KT 24/17 A2997 RMK A01 T02430173  RH  065%=      5-min Rain = 0
KSC1 151418Z 16009KT 24/17 A2998 RMK A01 T02420173  RH  065%=      5-min Rain = 0
KSC1 151419Z 17009KT 24/17 A2998 RMK A01 T02420173  RH  065%=      5-min Rain = 0
KSC1 151420Z 16009KT 24/17 A2998 RMK A01 T02420173  RH  065%=      5-min Rain = 0
KSC1 151421Z 15007KT 24/17 A2998 RMK A01 T02420173  RH  065%=      5-min Rain = 0
KSC1 151422Z 16008KT 24/17 A2998 RMK A01 T02420173  RH  065%=      5-min Rain = 0
KSC1 151423Z 16007KT 24/17 A2998 RMK A01 T02430173  RH  065%=      5-min Rain = 0
KSC1 151424Z 15007KT 24/17 A2998 RMK A01 T02430173  RH  065%=      5-min Rain = 0
KSC1 151425Z 17010KT 24/17 A2998 RMK A01 T02440173  RH  065%=      5-min Rain = 0
KSC1 151426Z 17009KT 25/17 A2998 RMK A01 T02450173  RH  064%=      5-min Rain = 0
KSC1 151427Z 16007KT 24/17 A2998 RMK A01 T02440173  RH  065%=      5-min Rain = 0
KSC1 151428Z 16004KT 24/17 A2998 RMK A01 T02440174  RH  065%=      5-min Rain = 0
KSC1 151429Z 15006KT 25/18 A2998 RMK A01 T02470175  RH  064%=      5-min Rain = 0
KSC1 151430Z 16009KT 25/18 A2998 RMK A01 T02490175  RH  063%=      5-min Rain = 0
KSC1 151431Z 16010KT 25/17 A2998 RMK A01 T02480174  RH  063%=      5-min Rain = 0
KSC1 151432Z 16008KT 25/17 A2998 RMK A01 T02470173  RH  063%=      5-min Rain = 0
KSC1 151433Z 17008KT 25/17 A2998 RMK A01 T02470174  RH  064%=      5-min Rain = 0
KSC1 151434Z 15011KT 25/17 A2998 RMK A01 T02480173  RH  063%=      5-min Rain = 0
KSC1 151435Z 16008KT 25/17 A2998 RMK A01 T02480173  RH  063%=      5-min Rain = 0
KSC1 151436Z 17008G13KT 25/18 A2998 RMK A01 T02480175  RH  064%=      5-min Rain = 0
KSC1 151437Z 18009KT 25/17 A2998 RMK A01 T02480174  RH  063%=      5-min Rain = 0
KSC1 151438Z 17008KT 25/17 A2998 RMK A01 T02500174  RH  063%=      5-min Rain = 0
KSC1 151439Z 18008KT 25/17 A2998 RMK A01 T02520174  RH  062%=      5-min Rain = 0
KSC1 151440Z 18008KT 25/17 A2997 RMK A01 T02530174  RH  062%=      5-min Rain = 0
KSC1 151441Z 17008KT 25/17 A2997 RMK A01 T02530174  RH  061%=      5-min Rain = 0
KSC1 151442Z 17006KT 25/17 A2997 RMK A01 T02530173  RH  061%=      5-min Rain = 0
KSC1 151443Z 16007KT 25/17 A2997 RMK A01 T02530174  RH  062%=      5-min Rain = 0
KSC1 151444Z 15009KT 25/18 A2997 RMK A01 T02540176  RH  062%=      5-min Rain = 0
KSC1 151445Z 16009KT 26/18 A2997 RMK A01 T02550176  RH  062%=      5-min Rain = 0
KSC1 151446Z 15010KT 26/18 A2997 RMK A01 T02550175  RH  061%=      5-min Rain = 0
KSC1 151447Z 15006KT 25/17 A2997 RMK A01 T02520174  RH  062%=      5-min Rain = 0
KSC1 151448Z 15006KT 25/18 A2997 RMK A01 T02520176  RH  063%=      5-min Rain = 0
KSC1 151449Z 15008KT 26/18 A2997 RMK A01 T02550177  RH  062%=      5-min Rain = 0
KSC1 151450Z 15007KT 26/18 A2998 RMK A01 T02560176  RH  061%=      5-min Rain = 0
KSC1 151451Z 17008G13KT 26/18 A2998 RMK A01 T02550176  RH  062%=      5-min Rain = 0
KSC1 151452Z 16009KT 25/18 A2998 RMK A01 T02530176  RH  062%=      5-min Rain = 0
KSC1 151453Z 16009KT 25/18 A2998 RMK A01 T02530177  RH  063%=      5-min Rain = 0
KSC1 151454Z 16008KT 25/18 A2998 RMK A01 T02530177  RH  063%=      5-min Rain = 0
KSC1 151455Z 17010KT 25/18 A2998 RMK A01 T02530177  RH  063%=      5-min Rain = 0
KSC1 151456Z 17007KT 25/18 A2998 RMK A01 T02540177  RH  062%=      5-min Rain = 0
KSC1 151457Z 18009KT 26/18 A2998 RMK A01 T02570178  RH  062%=      5-min Rain = 0
KSC1 151458Z 15007KT 26/18 A2998 RMK A01 T02570177  RH  061%=      5-min Rain = 0
KSC1 151459Z 15008KT 26/18 A2998 RMK A01 T02560177  RH  062%=      5-min Rain = 0
KSC1 151500Z 14010KT 26/18 A2998 RMK A01 T02570177  RH  061%=      5-min Rain = 0
KSC1 151501Z 16009KT 26/18 A2998 RMK A01 T02580178  RH  061%=      5-min Rain = 0
KSC1 151502Z 16007KT 26/18 A2998 RMK A01 T02590178  RH  061%=      5-min Rain = 0
KSC1 151503Z 15008KT 26/18 A2998 RMK A01 T02600178  RH  060%=      5-min Rain = 0
KSC1 151504Z 17008KT 26/18 A2998 RMK A01 T02610177  RH  060%=      5-min Rain = 0
KSC1 151505Z 19009KT 26/18 A2998 RMK A01 T02610177  RH  060%=      5-min Rain = 0
KSC1 151506Z 17008KT 26/18 A2998 RMK A01 T02610177  RH  060%=      5-min Rain = 0
KSC1 151507Z 15008KT 26/18 A2998 RMK A01 T02610177  RH  060%=      5-min Rain = 0
KSC1 151508Z 14009KT 26/18 A2998 RMK A01 T02610177  RH  060%=      5-min Rain = 0
KSC1 151509Z 15011KT 26/18 A2998 RMK A01 T02610176  RH  059%=      5-min Rain = 0
KSC1 151510Z 17009KT 26/18 A2998 RMK A01 T02610176  RH  059%=      5-min Rain = 0
KSC1 151511Z 16008KT 26/18 A2998 RMK A01 T02610176  RH  059%=      5-min Rain = 0
KSC1 151512Z 17010KT 26/18 A2998 RMK A01 T02620176  RH  059%=      5-min Rain = 0
KSC1 151513Z 17009KT 26/18 A2998 RMK A01 T02620176  RH  059%=      5-min Rain = 0
KSC1 151514Z 18010KT 26/18 A2998 RMK A01 T02620176  RH  059%=      5-min Rain = 0
KSC1 151515Z 17010KT 26/18 A2998 RMK A01 T02610176  RH  059%=      5-min Rain = 0
KSC1 151516Z 17009KT 26/18 A2998 RMK A01 T02610177  RH  060%=      5-min Rain = 0
KSC1 151517Z 18008KT 26/18 A2998 RMK A01 T02620177  RH  060%=      5-min Rain = 0
KSC1 151518Z 20008KT 26/18 A2998 RMK A01 T02620177  RH  059%=      5-min Rain = 0
KSC1 151519Z 17009KT 26/18 A2998 RMK A01 T02620177  RH  060%=      5-min Rain = 0
KSC1 151520Z 17009KT 26/18 A2998 RMK A01 T02630176  RH  059%=      5-min Rain = 0
KSC1 151521Z 17008KT 27/18 A2998 RMK A01 T02650177  RH  058%=      5-min Rain = 0
KSC1 151522Z 16009KT 27/18 A2998 RMK A01 T02670176  RH  057%=      5-min Rain = 0
KSC1 151523Z 18008KT 27/18 A2998 RMK A01 T02690175  RH  057%=      5-min Rain = 0
KSC1 151524Z 19009KT 27/17 A2998 RMK A01 T02700174  RH  056%=      5-min Rain = 0
KSC1 151525Z 17008KT 27/18 A2998 RMK A01 T02710176  RH  056%=      5-min Rain = 0
KSC1 151526Z 18009KT 27/18 A2998 RMK A01 T02710175  RH  056%=      5-min Rain = 0
KSC1 151527Z 17009KT 27/18 A2998 RMK A01 T02700175  RH  056%=      5-min Rain = 0
KSC1 151528Z 17008KT 27/17 A2998 RMK A01 T02670174  RH  057%=      5-min Rain = 0
KSC1 151529Z 19009KT 27/17 A2998 RMK A01 T02670174  RH  057%=      5-min Rain = 0
KSC1 151530Z 18009G14KT 27/18 A2998 RMK A01 T02680175  RH  056%=      5-min Rain = 0
KSC1 151531Z 17012KT 27/17 A2998 RMK A01 T02700174  RH  056%=      5-min Rain = 0
KSC1 151532Z 17010KT 27/17 A2998 RMK A01 T02710174  RH  055%=      5-min Rain = 0
KSC1 151533Z 17009KT 27/17 A2998 RMK A01 T02710174  RH  055%=      5-min Rain = 0
KSC1 151534Z 19007KT 27/17 A2998 RMK A01 T02710174  RH  055%=      5-min Rain = 0
KSC1 151535Z 19006KT 27/18 A2998 RMK A01 T02720175  RH  055%=      5-min Rain = 0
KSC1 151536Z 17009G15KT 27/18 A2998 RMK A01 T02740175  RH  055%=      5-min Rain = 0
KSC1 151537Z 18011KT 28/17 A2998 RMK A01 T02770173  RH  053%=      5-min Rain = 0
KSC1 151538Z 18010KT 28/17 A2998 RMK A01 T02770171  RH  053%=      5-min Rain = 0
KSC1 151539Z 18009KT 28/17 A2998 RMK A01 T02770171  RH  053%=      5-min Rain = 0
KSC1 151540Z 19007KT 28/17 A2998 RMK A01 T02750171  RH  053%=      5-min Rain = 0
KSC1 151541Z 18006KT 27/17 A2998 RMK A01 T02740174  RH  054%=      5-min Rain = 0
KSC1 151542Z 15009KT 28/17 A2998 RMK A01 T02770173  RH  053%=      5-min Rain = 0
KSC1 151543Z 17008KT 28/17 A2998 RMK A01 T02800173  RH  052%=      5-min Rain = 0
KSC1 151544Z 16007KT 28/17 A2998 RMK A01 T02800173  RH  052%=      5-min Rain = 0
KSC1 151545Z 18007KT 28/17 A2998 RMK A01 T02820174  RH  052%=      5-min Rain = 0
KSC1 151546Z 17008KT 28/17 A2998 RMK A01 T02820174  RH  052%=      5-min Rain = 0
KSC1 151547Z 17009KT 28/17 A2998 RMK A01 T02810172  RH  051%=      5-min Rain = 0
KSC1 151548Z 16008KT 28/17 A2998 RMK A01 T02790172  RH  052%=      5-min Rain = 0
KSC1 151549Z 17010KT 28/17 A2998 RMK A01 T02790171  RH  052%=      5-min Rain = 0
KSC1 151550Z 17008KT 28/17 A2998 RMK A01 T02810170  RH  051%=      5-min Rain = 0
KSC1 151551Z 17010KT 28/17 A2998 RMK A01 T02820169  RH  050%=      5-min Rain = 0
KSC1 151552Z 18012KT 28/17 A2998 RMK A01 T02840168  RH  050%=      5-min Rain = 0
KSC1 151553Z 18007KT 29/17 A2998 RMK A01 T02850168  RH  049%=      5-min Rain = 0
KSC1 151554Z 18008KT 29/17 A2998 RMK A01 T02860168  RH  049%=      5-min Rain = 0
KSC1 151555Z 18009KT 29/17 A2998 RMK A01 T02870167  RH  048%=      5-min Rain = 0
KSC1 151556Z 18009KT 29/17 A2998 RMK A01 T02860169  RH  049%=      5-min Rain = 0
KSC1 151557Z 17010KT 29/17 A2998 RMK A01 T02860169  RH  049%=      5-min Rain = 0
KSC1 151558Z 19007KT 29/17 A2998 RMK A01 T02860169  RH  049%=      5-min Rain = 0
KSC1 151559Z 22007KT 29/17 A2998 RMK A01 T02860165  RH  048%=      5-min Rain = 0
KSC1 151600Z 19009KT 29/17 A2998 RMK A01 T02870165  RH  048%=      5-min Rain = 0
KSC1 151601Z 19007KT 29/17 A2998 RMK A01 T02880165  RH  047%=      5-min Rain = 0
KSC1 151602Z 20008KT 29/16 A2998 RMK A01 T02870164  RH  047%=      5-min Rain = 0
KSC1 151603Z 19006KT 29/17 A2998 RMK A01 T02870165  RH  047%=      5-min Rain = 0
KSC1 151604Z 17007KT 29/17 A2998 RMK A01 T02890166  RH  047%=      5-min Rain = 0
KSC1 151605Z 19008KT 29/17 A2998 RMK A01 T02900166  RH  047%=      5-min Rain = 0
KSC1 151606Z 18010KT 29/16 A2998 RMK A01 T02890164  RH  047%=      5-min Rain = 0
KSC1 151607Z 17009KT 29/16 A2998 RMK A01 T02890164  RH  047%=      5-min Rain = 0
KSC1 151608Z 19009KT 29/16 A2998 RMK A01 T02910164  RH  046%=      5-min Rain = 0
KSC1 151609Z 16007KT 29/17 A2998 RMK A01 T02920167  RH  047%=      5-min Rain = 0
KSC1 151610Z 17007KT 30/17 A2998 RMK A01 T02960167  RH  046%=      5-min Rain = 0
KSC1 151611Z 20008KT 30/17 A2998 RMK A01 T02970167  RH  045%=      5-min Rain = 0
KSC1 151612Z 19011KT 30/17 A2998 RMK A01 T02990167  RH  045%=      5-min Rain = 0
KSC1 151613Z 19009KT 30/17 A2998 RMK A01 T03010165  RH  044%=      5-min Rain = 0
KSC1 151614Z 21009KT 30/16 A2998 RMK A01 T02990164  RH  044%=      5-min Rain = 0
KSC1 151615Z 21006KT 30/16 A2998 RMK A01 T02960163  RH  045%=      5-min Rain = 0
KSC1 151616Z 19006KT 29/16 A2998 RMK A01 T02940164  RH  045%=      5-min Rain = 0
KSC1 151617Z 20009KT 30/16 A2998 RMK A01 T02970164  RH  045%=      5-min Rain = 0
KSC1 151618Z 20008KT 30/16 A2998 RMK A01 T02970162  RH  044%=      5-min Rain = 0
KSC1 151619Z 18005KT 29/16 A2997 RMK A01 T02940162  RH  045%=      5-min Rain = 0
KSC1 151620Z 20010KT 29/17 A2998 RMK A01 T02940165  RH  046%=      5-min Rain = 0
KSC1 151621Z 20008KT 30/17 A2997 RMK A01 T02960166  RH  045%=      5-min Rain = 0
KSC1 151622Z 20007KT 30/17 A2997 RMK A01 T02960166  RH  046%=      5-min Rain = 0
KSC1 151623Z 21005KT 30/17 A2997 RMK A01 T02960166  RH  046%=      5-min Rain = 0
KSC1 151624Z 23006KT 30/17 A2997 RMK A01 T02960166  RH  045%=      5-min Rain = 0
KSC1 151625Z 22008KT 30/17 A2997 RMK A01 T02970166  RH  045%=      5-min Rain = 0
KSC1 151626Z 21010KT 30/16 A2997 RMK A01 T02980161  RH  044%=      5-min Rain = 0
KSC1 151627Z 17006KT 30/16 A2997 RMK A01 T03000160  RH  043%=      5-min Rain = 0
KSC1 151628Z 17007KT 30/16 A2997 RMK A01 T03020163  RH  043%=      5-min Rain = 0
KSC1 151629Z 17007KT 30/16 A2997 RMK A01 T03030161  RH  042%=      5-min Rain = 0
KSC1 151630Z 19008KT 30/16 A2997 RMK A01 T03010159  RH  042%=      5-min Rain = 0
KSC1 151631Z 20008KT 30/16 A2997 RMK A01 T03000159  RH  042%=      5-min Rain = 0
KSC1 151632Z 20008KT 30/16 A2997 RMK A01 T03030158  RH  041%=      5-min Rain = 0
KSC1 151633Z 20008KT 31/16 A2997 RMK A01 T03070156  RH  040%=      5-min Rain = 0
KSC1 151634Z 20007KT 31/15 A2997 RMK A01 T03070153  RH  039%=      5-min Rain = 0
KSC1 151635Z 20008KT 30/16 A2997 RMK A01 T03040155  RH  041%=      5-min Rain = 0
KSC1 151636Z 18007KT 30/16 A2997 RMK A01 T03040156  RH  041%=      5-min Rain = 0
KSC1 151637Z 16008KT 30/16 A2997 RMK A01 T03040157  RH  041%=      5-min Rain = 0
KSC1 151638Z 18009KT 31/16 A2997 RMK A01 T03060159  RH  041%=      5-min Rain = 0
KSC1 151639Z 18008KT 31/16 A2997 RMK A01 T03060159  RH  041%=      5-min Rain = 0
KSC1 151640Z 19006KT 30/16 A2997 RMK A01 T03040159  RH  042%=      5-min Rain = 0
KSC1 151641Z 19007KT 31/16 A2997 RMK A01 T03050159  RH  041%=      5-min Rain = 0
KSC1 151642Z 20004KT 31/16 A2997 RMK A01 T03050159  RH  041%=      5-min Rain = 0
KSC1 151643Z 20006KT 31/16 A2997 RMK A01 T03060159  RH  041%=      5-min Rain = 0
KSC1 151644Z 22006KT 31/15 A2997 RMK A01 T03090152  RH  039%=      5-min Rain = 0
KSC1 151645Z 18009KT 31/15 A2997 RMK A01 T03110154  RH  039%=      5-min Rain = 0
KSC1 151646Z 20009KT 31/15 A2997 RMK A01 T03100154  RH  039%=      5-min Rain = 0
KSC1 151647Z 20009KT 31/15 A2997 RMK A01 T03100153  RH  039%=      5-min Rain = 0
KSC1 151648Z 18007KT 31/15 A2997 RMK A01 T03100152  RH  038%=      5-min Rain = 0
KSC1 151649Z 18008KT 31/15 A2997 RMK A01 T03100149  RH  038%=      5-min Rain = 0
KSC1 151650Z 22009KT 31/15 A2997 RMK A01 T03110148  RH  037%=      5-min Rain = 0
KSC1 151651Z 23008KT 31/15 A2997 RMK A01 T03110148  RH  037%=      5-min Rain = 0
KSC1 151652Z 21008KT 31/15 A2997 RMK A01 T03110149  RH  038%=      5-min Rain = 0
KSC1 151653Z 22006KT 31/15 A2997 RMK A01 T03120150  RH  037%=      5-min Rain = 0
KSC1 151654Z 21007KT 31/15 A2997 RMK A01 T03140151  RH  037%=      5-min Rain = 0
KSC1 151655Z 18007KT 31/15 A2997 RMK A01 T03130154  RH  038%=      5-min Rain = 0
KSC1 151656Z 17006KT 31/16 A2997 RMK A01 T03110156  RH  039%=      5-min Rain = 0
KSC1 151657Z 19006KT 31/16 A2997 RMK A01 T03110156  RH  039%=      5-min Rain = 0
KSC1 151658Z 23007KT 31/15 A2997 RMK A01 T03110151  RH  038%=      5-min Rain = 0
KSC1 151659Z 24007KT 31/15 A2997 RMK A01 T03130151  RH  037%=      5-min Rain = 0
KSC1 151700Z 24005KT 32/15 A2997 RMK A01 T03150152  RH  037%=      5-min Rain = 0
KSC1 151701Z 23003KT 32/15 A2997 RMK A01 T03150151  RH  037%=      5-min Rain = 0
KSC1 151702Z 23004KT 32/15 A2997 RMK A01 T03150151  RH  037%=      5-min Rain = 0
KSC1 151703Z 20007KT 32/15 A2997 RMK A01 T03170148  RH  036%=      5-min Rain = 0
KSC1 151704Z 22008G13KT 32/15 A2997 RMK A01 T03200147  RH  035%=      5-min Rain = 0
KSC1 151705Z 24007KT 32/15 A2998 RMK A01 T03200148  RH  035%=      5-min Rain = 0
KSC1 151706Z 23004KT 32/15 A2998 RMK A01 T03220148  RH  035%=      5-min Rain = 0
KSC1 151707Z 25004KT 32/14 A2998 RMK A01 T03220143  RH  034%=      5-min Rain = 0
KSC1 151708Z 26004KT 32/14 A2998 RMK A01 T03200141  RH  034%=      5-min Rain = 0
KSC1 151709Z 26004KT 32/15 A2998 RMK A01 T03190146  RH  035%=      5-min Rain = 0
KSC1 151710Z 24003KT 32/15 A2998 RMK A01 T03180149  RH  036%=      5-min Rain = 0
KSC1 151711Z 25006KT 32/15 A2998 RMK A01 T03200147  RH  035%=      5-min Rain = 0
KSC1 151712Z 25006KT 32/15 A2998 RMK A01 T03220145  RH  034%=      5-min Rain = 0
KSC1 151713Z 24007KT 32/15 A2998 RMK A01 T03220146  RH  034%=      5-min Rain = 0
KSC1 151714Z 22007KT 32/15 A2998 RMK A01 T03240146  RH  034%=      5-min Rain = 0
KSC1 151715Z 22005KT 32/14 A2998 RMK A01 T03230144  RH  034%=      5-min Rain = 0
KSC1 151716Z 22004KT 32/14 A2998 RMK A01 T03210141  RH  034%=      5-min Rain = 0
KSC1 151717Z 19003KT 32/14 A2998 RMK A01 T03200139  RH  033%=      5-min Rain = 0
KSC1 151718Z 16002KT 32/14 A2998 RMK A01 T03190142  RH  034%=      5-min Rain = 0
KSC1 151719Z 12002KT 32/15 A2998 RMK A01 T03180145  RH  035%=      5-min Rain = 0
KSC1 151720Z 13001KT 32/15 A2998 RMK A01 T03180148  RH  036%=      5-min Rain = 0
KSC1 151721Z 16002KT 32/15 A2998 RMK A01 T03200148  RH  035%=      5-min Rain = 0
KSC1 151722Z 07001KT 32/15 A2998 RMK A01 T03220147  RH  035%=      5-min Rain = 0
KSC1 151723Z 07002KT 32/15 A2998 RMK A01 T03220147  RH  035%=      5-min Rain = 0
KSC1 151724Z 05001KT 32/15 A2998 RMK A01 T03230146  RH  034%=      5-min Rain = 0
KSC1 151725Z 35001KT 33/15 A2998 RMK A01 T03250147  RH  034%=      5-min Rain = 0
KSC1 151726Z 28004KT 33/15 A2998 RMK A01 T03260148  RH  034%=      5-min Rain = 0
KSC1 151727Z 26006KT 33/15 A2998 RMK A01 T03270148  RH  034%=      5-min Rain = 0
KSC1 151728Z 22005KT 33/15 A2998 RMK A01 T03270149  RH  034%=      5-min Rain = 0
KSC1 151729Z 23003KT 33/15 A2998 RMK A01 T03280149  RH  034%=      5-min Rain = 0
KSC1 151730Z 29003KT 33/15 A2998 RMK A01 T03280148  RH  034%=      5-min Rain = 0
KSC1 151731Z 32003KT 33/15 A2998 RMK A01 T03270147  RH  034%=      5-min Rain = 0
KSC1 151732Z 31002KT 33/15 A2998 RMK A01 T03250147  RH  034%=      5-min Rain = 0
KSC1 151733Z 28002KT 32/15 A2998 RMK A01 T03240148  RH  035%=      5-min Rain = 0
KSC1 151734Z 28004KT 33/15 A2998 RMK A01 T03250147  RH  034%=      5-min Rain = 0
KSC1 151735Z 32003KT 33/15 A2998 RMK A01 T03270146  RH  034%=      5-min Rain = 0
KSC1 151736Z 21002KT 33/15 A2998 RMK A01 T03270147  RH  034%=      5-min Rain = 0
KSC1 151737Z 29003KT 33/15 A2998 RMK A01 T03290146  RH  033%=      5-min Rain = 0
KSC1 151738Z 28004KT 33/14 A2998 RMK A01 T03300142  RH  032%=      5-min Rain = 0
KSC1 151739Z 30004KT 33/14 A2998 RMK A01 T03290143  RH  033%=      5-min Rain = 0
KSC1 151740Z 30003KT 33/14 A2998 RMK A01 T03290143  RH  032%=      5-min Rain = 0
KSC1 151741Z 30003KT 33/14 A2998 RMK A01 T03280143  RH  033%=      5-min Rain = 0
KSC1 151742Z 30004KT 33/14 A2998 RMK A01 T03270143  RH  033%=      5-min Rain = 0
KSC1 151743Z 25004KT 33/14 A2997 RMK A01 T03270144  RH  033%=      5-min Rain = 0
KSC1 151744Z 24003KT 33/15 A2998 RMK A01 T03280145  RH  033%=      5-min Rain = 0
KSC1 151745Z 27002KT 33/14 A2997 RMK A01 T03280143  RH  033%=      5-min Rain = 0
KSC1 151746Z 28003KT 33/14 A2997 RMK A01 T03290144  RH  033%=      5-min Rain = 0
KSC1 151747Z 35002KT 33/14 A2997 RMK A01 T03290143  RH  033%=      5-min Rain = 0
KSC1 151748Z 01002KT 33/15 A2997 RMK A01 T03270145  RH  033%=      5-min Rain = 0
KSC1 151749Z 03003KT 33/14 A2997 RMK A01 T03290144  RH  033%=      5-min Rain = 0
KSC1 151750Z 01001KT 33/14 A2997 RMK A01 T03300143  RH  032%=      5-min Rain = 0
KSC1 151751Z 20001KT 33/14 A2997 RMK A01 T03310144  RH  032%=      5-min Rain = 0
KSC1 151752Z 18004KT 33/14 A2997 RMK A01 T03310143  RH  032%=      5-min Rain = 0
KSC1 151753Z 21007KT 33/14 A2997 RMK A01 T03330143  RH  032%=      5-min Rain = 0
KSC1 151754Z 23007KT 33/14 A2997 RMK A01 T03330141  RH  031%=      5-min Rain = 0
KSC1 151755Z 17004KT 33/14 A2997 RMK A01 T03310139  RH  031%=      5-min Rain = 0
KSC1 151756Z 13004KT 33/14 A2997 RMK A01 T03300138  RH  031%=      5-min Rain = 0
KSC1 151757Z 19003KT 33/14 A2997 RMK A01 T03300139  RH  032%=      5-min Rain = 0
KSC1 151758Z 18005KT 33/14 A2997 RMK A01 T03330139  RH  031%=      5-min Rain = 0
KSC1 151759Z 17005KT 33/14 A2997 RMK A01 T03340138  RH  031%=      5-min Rain = 0
KSC1 151800Z 15003KT 33/14 A2997 RMK A01 T03340138  RH  031%=      5-min Rain = 0
KSC1 151801Z 19002KT 33/14 A2997 RMK A01 T03340137  RH  031%=      5-min Rain = 0
KSC1 151802Z 08001KT 34/13 A2997 RMK A01 T03360133  RH  029%=      5-min Rain = 0
KSC1 151803Z 05001KT 33/13 A2997 RMK A01 T03340133  RH  030%=      5-min Rain = 0
KSC1 151804Z 19003KT 33/14 A2997 RMK A01 T03340135  RH  030%=      5-min Rain = 0
KSC1 151805Z 22006KT 34/14 A2997 RMK A01 T03370136  RH  030%=      5-min Rain = 0
KSC1 151806Z 22005KT 34/13 A2997 RMK A01 T03370133  RH  029%=      5-min Rain = 0
KSC1 151807Z 26004KT 33/13 A2997 RMK A01 T03330131  RH  029%=      5-min Rain = 0
KSC1 151808Z 26003KT 33/13 A2997 RMK A01 T03320130  RH  029%=      5-min Rain = 0
KSC1 151809Z 24002KT 33/13 A2997 RMK A01 T03330130  RH  029%=      5-min Rain = 0
KSC1 151810Z 06001KT 33/14 A2996 RMK A01 T03330135  RH  030%=      5-min Rain = 0
KSC1 151811Z 06001KT 33/14 A2996 RMK A01 T03330136  RH  030%=      5-min Rain = 0
KSC1 151812Z 19003KT 34/14 A2996 RMK A01 T03370137  RH  030%=      5-min Rain = 0
KSC1 151813Z 17002KT 34/14 A2996 RMK A01 T03380137  RH  030%=      5-min Rain = 0
KSC1 151814Z 19004KT 34/13 A2996 RMK A01 T03380129  RH  028%=      5-min Rain = 0
KSC1 151815Z 28002KT 34/13 A2996 RMK A01 T03380125  RH  028%=      5-min Rain = 0
KSC1 151816Z 26003KT 34/13 A2996 RMK A01 T03380127  RH  028%=      5-min Rain = 0
KSC1 151817Z 25002KT 34/13 A2996 RMK A01 T03390130  RH  028%=      5-min Rain = 0
KSC1 151818Z 16002KT 34/13 A2996 RMK A01 T03420132  RH  028%=      5-min Rain = 0
KSC1 151819Z 14004KT 34/13 A2996 RMK A01 T03430132  RH  028%=      5-min Rain = 0
KSC1 151820Z 18005KT 34/13 A2996 RMK A01 T03440134  RH  028%=      5-min Rain = 0
KSC1 151821Z 18005KT 35/14 A2996 RMK A01 T03450135  RH  028%=      5-min Rain = 0
KSC1 151822Z 17004KT 35/13 A2996 RMK A01 T03450133  RH  028%=      5-min Rain = 0
KSC1 151823Z 16007KT 35/13 A2996 RMK A01 T03470134  RH  028%=      5-min Rain = 0
KSC1 151824Z 18008KT 35/13 A2996 RMK A01 T03480130  RH  027%=      5-min Rain = 0
KSC1 151825Z 19004KT 34/13 A2996 RMK A01 T03420129  RH  028%=      5-min Rain = 0
KSC1 151826Z 23003KT 34/13 A2996 RMK A01 T03390131  RH  028%=      5-min Rain = 0
KSC1 151827Z 24003KT 34/13 A2996 RMK A01 T03380130  RH  028%=      5-min Rain = 0
KSC1 151828Z 25001KT 34/13 A2996 RMK A01 T03380129  RH  028%=      5-min Rain = 0
KSC1 151829Z 14006KT 34/13 A2996 RMK A01 T03390125  RH  027%=      5-min Rain = 0
KSC1 151830Z 13007KT 34/11 A2995 RMK A01 T03400114  RH  025%=      5-min Rain = 0
KSC1 151831Z 15008KT 34/12 A2995 RMK A01 T03400120  RH  026%=      5-min Rain = 0
KSC1 151832Z 16007KT 34/13 A2995 RMK A01 T03410127  RH  027%=      5-min Rain = 0
KSC1 151833Z 16005KT 34/13 A2995 RMK A01 T03410125  RH  027%=      5-min Rain = 0
KSC1 151834Z 11003KT 34/13 A2995 RMK A01 T03400126  RH  027%=      5-min Rain = 0
KSC1 151835Z 09004KT 34/13 A2995 RMK A01 T03400126  RH  027%=      5-min Rain = 0
KSC1 151836Z 08002KT 34/12 A2995 RMK A01 T03410123  RH  027%=      5-min Rain = 0
KSC1 151837Z 06001KT 34/13 A2995 RMK A01 T03410126  RH  027%=      5-min Rain = 0
KSC1 151838Z 06002KT 35/13 A2995 RMK A01 T03450129  RH  027%=      5-min Rain = 0
KSC1 151839Z 18003KT 35/13 A2995 RMK A01 T03490126  RH  026%=      5-min Rain = 0
KSC1 151840Z 17004KT 35/12 A2995 RMK A01 T03520122  RH  025%=      5-min Rain = 0
KSC1 151841Z 22004KT 35/12 A2995 RMK A01 T03510121  RH  025%=      5-min Rain = 0
KSC1 151842Z 22003KT 35/12 A2995 RMK A01 T03520119  RH  025%=      5-min Rain = 0
KSC1 151843Z 21003KT 35/12 A2995 RMK A01 T03510118  RH  024%=      5-min Rain = 0
KSC1 151844Z 18002KT 35/12 A2995 RMK A01 T03510120  RH  025%=      5-min Rain = 0
KSC1 151845Z 21002KT 35/12 A2995 RMK A01 T03520119  RH  024%=      5-min Rain = 0
KSC1 151846Z 10002G8KT 35/12 A2995 RMK A01 T03520120  RH  025%=      5-min Rain = 0
KSC1 151847Z 13006KT 35/12 A2995 RMK A01 T03530124  RH  025%=      5-min Rain = 0
KSC1 151848Z 14004KT 35/13 A2995 RMK A01 T03540128  RH  026%=      5-min Rain = 0
KSC1 151849Z 14006KT 36/13 A2995 RMK A01 T03580129  RH  025%=      5-min Rain = 0
KSC1 151850Z 18007KT 36/12 A2995 RMK A01 T03570121  RH  024%=      5-min Rain = 0
KSC1 151851Z 20008KT 35/11 A2995 RMK A01 T03530109  RH  023%=      5-min Rain = 0
KSC1 151852Z 18005KT 35/11 A2995 RMK A01 T03490106  RH  023%=      5-min Rain = 0
KSC1 151853Z 20007KT 35/11 A2995 RMK A01 T03480106  RH  023%=      5-min Rain = 0
KSC1 151854Z 20007KT 35/11 A2995 RMK A01 T03490105  RH  023%=      5-min Rain = 0
KSC1 151855Z 19007KT 35/10 A2995 RMK A01 T03490104  RH  023%=      5-min Rain = 0
KSC1 151856Z 18006KT 35/10 A2995 RMK A01 T03480104  RH  023%=      5-min Rain = 0
KSC1 151857Z 20006KT 35/11 A2995 RMK A01 T03480107  RH  023%=      5-min Rain = 0
KSC1 151858Z 22003KT 35/11 A2995 RMK A01 T03490109  RH  023%=      5-min Rain = 0
KSC1 151859Z 21006KT 35/11 A2994 RMK A01 T03490110  RH  024%=      5-min Rain = 0
KSC1 151900Z 21006KT 35/11 A2994 RMK A01 T03490106  RH  023%=      5-min Rain = 0
KSC1 151901Z 21005KT 35/11 A2994 RMK A01 T03510108  RH  023%=      5-min Rain = 0
KSC1 151902Z 23007KT 36/11 A2994 RMK A01 T03550110  RH  023%=      5-min Rain = 0
KSC1 151903Z 23006KT 36/11 A2994 RMK A01 T03560109  RH  022%=      5-min Rain = 0
KSC1 151904Z 23006KT 36/11 A2994 RMK A01 T03550110  RH  023%=      5-min Rain = 0
KSC1 151905Z 22005KT 35/12 A2994 RMK A01 T03540116  RH  024%=      5-min Rain = 0
KSC1 151906Z 24004KT 35/12 A2994 RMK A01 T03530115  RH  024%=      5-min Rain = 0
KSC1 151907Z 21004KT 35/12 A2994 RMK A01 T03540116  RH  024%=      5-min Rain = 0
KSC1 151908Z 19003KT 35/12 A2994 RMK A01 T03530115  RH  024%=      5-min Rain = 0
KSC1 151909Z 13005KT 35/12 A2994 RMK A01 T03520124  RH  025%=      5-min Rain = 0
KSC1 151910Z 10002KT 35/12 A2994 RMK A01 T03520123  RH  025%=      5-min Rain = 0
KSC1 151911Z 09001KT 35/12 A2994 RMK A01 T03520123  RH  025%=      5-min Rain = 0
KSC1 151912Z 07007KT 35/13 A2994 RMK A01 T03530126  RH  026%=      5-min Rain = 0
KSC1 151913Z 09005KT 35/13 A2994 RMK A01 T03530126  RH  026%=      5-min Rain = 0
KSC1 151914Z 10005KT 35/13 A2994 RMK A01 T03520126  RH  026%=      5-min Rain = 0
KSC1 151915Z 11009KT 35/12 A2994 RMK A01 T03510124  RH  025%=      5-min Rain = 0
KSC1 151916Z 11007KT 35/12 A2994 RMK A01 T03460122  RH  026%=      5-min Rain = 0
KSC1 151917Z 10005KT 34/12 A2994 RMK A01 T03400121  RH  027%=      5-min Rain = 0
KSC1 151918Z 09004KT 34/12 A2994 RMK A01 T03370121  RH  027%=      5-min Rain = 0
KSC1 151919Z 12006KT 34/12 A2994 RMK A01 T03360122  RH  027%=      5-min Rain = 0
KSC1 151920Z 13001KT 34/12 A2994 RMK A01 T03360120  RH  027%=      5-min Rain = 0
KSC1 151921Z 07000KT 34/12 A2993 RMK A01 T03360120  RH  027%=      5-min Rain = 0
KSC1 151922Z 05005KT 34/12 A2994 RMK A01 T03360122  RH  027%=      5-min Rain = 0
KSC1 151923Z 05005G10KT 34/13 A2994 RMK A01 T03360125  RH  028%=      5-min Rain = 0
KSC1 151924Z 08010KT 34/14 A2994 RMK A01 T03350143  RH  031%=      5-min Rain = 0
KSC1 151925Z 07007KT 34/15 A2994 RMK A01 T03350152  RH  033%=      5-min Rain = 0
KSC1 151926Z 07010G15KT 33/15 A2994 RMK A01 T03340153  RH  034%=      5-min Rain = 0
KSC1 151927Z 06012KT 33/15 A2994 RMK A01 T03340152  RH  034%=      5-min Rain = 0
KSC1 151928Z 07011G17KT 34/15 A2993 RMK A01 T03360150  RH  033%=      5-min Rain = 0
KSC1 151929Z 09012KT 34/15 A2993 RMK A01 T03370149  RH  032%=      5-min Rain = 0
KSC1 151930Z 11011KT 34/14 A2994 RMK A01 T03370142  RH  031%=      5-min Rain = 0
KSC1 151931Z 12005KT 34/14 A2993 RMK A01 T03380140  RH  030%=      5-min Rain = 0
KSC1 151932Z 09009KT 34/14 A2993 RMK A01 T03380141  RH  031%=      5-min Rain = 0
KSC1 151933Z 07011KT 34/14 A2993 RMK A01 T03380144  RH  031%=      5-min Rain = 0
KSC1 151934Z 08012KT 34/15 A2993 RMK A01 T03380150  RH  032%=      5-min Rain = 0
KSC1 151935Z 09010KT 34/15 A2993 RMK A01 T03370148  RH  032%=      5-min Rain = 0
KSC1 151936Z 07008KT 34/15 A2993 RMK A01 T03380149  RH  032%=      5-min Rain = 0
KSC1 151937Z 08008KT 34/15 A2993 RMK A01 T03420154  RH  032%=      5-min Rain = 0
KSC1 151938Z 07012KT 35/16 A2993 RMK A01 T03450157  RH  033%=      5-min Rain = 0
KSC1 151939Z 06013KT 34/16 A2993 RMK A01 T03440158  RH  033%=      5-min Rain = 0
KSC1 151940Z 06013KT 34/16 A2993 RMK A01 T03430157  RH  033%=      5-min Rain = 0
KSC1 151941Z 04012KT 34/16 A2993 RMK A01 T03440157  RH  033%=      5-min Rain = 0
KSC1 151942Z 05011KT 34/16 A2993 RMK A01 T03440159  RH  033%=      5-min Rain = 0
KSC1 151943Z 08008KT 34/16 A2993 RMK A01 T03430159  RH  033%=      5-min Rain = 0
KSC1 151944Z 06011KT 35/16 A2993 RMK A01 T03470161  RH  033%=      5-min Rain = 0
KSC1 151945Z 05014KT 35/16 A2993 RMK A01 T03500161  RH  033%=      5-min Rain = 0
KSC1 151946Z 08011G16KT 35/16 A2993 RMK A01 T03490159  RH  032%=      5-min Rain = 0
KSC1 151947Z 08008KT 35/15 A2993 RMK A01 T03500153  RH  031%=      5-min Rain = 0
KSC1 151948Z 07010KT 35/15 A2993 RMK A01 T03540151  RH  030%=      5-min Rain = 0
KSC1 151949Z 10013KT 36/15 A2993 RMK A01 T03570152  RH  030%=      5-min Rain = 0
KSC1 151950Z 09009KT 35/15 A2993 RMK A01 T03520151  RH  030%=      5-min Rain = 0
KSC1 151951Z 09010G16KT 35/15 A2993 RMK A01 T03480152  RH  031%=      5-min Rain = 0
KSC1 151952Z 10012KT 35/16 A2993 RMK A01 T03510156  RH  031%=      5-min Rain = 0
KSC1 151953Z 10013KT 35/16 A2993 RMK A01 T03500157  RH  032%=      5-min Rain = 0
KSC1 151954Z 11014KT 35/16 A2992 RMK A01 T03480157  RH  032%=      5-min Rain = 0
KSC1 151955Z 11014KT 35/16 A2992 RMK A01 T03470158  RH  032%=      5-min Rain = 0
KSC1 151956Z 12011KT 35/16 A2992 RMK A01 T03480157  RH  032%=      5-min Rain = 0
KSC1 151957Z 11011KT 35/16 A2992 RMK A01 T03490157  RH  032%=      5-min Rain = 0
KSC1 151958Z 08010KT 35/16 A2992 RMK A01 T03490156  RH  032%=      5-min Rain = 0
KSC1 151959Z 07009KT 35/16 A2992 RMK A01 T03490156  RH  032%=      5-min Rain = 0
KSC1 152000Z 07009KT 35/16 A2992 RMK A01 T03520157  RH  031%=      5-min Rain = 0
KSC1 152001Z 07014KT 36/16 A2992 RMK A01 T03550157  RH  031%=      5-min Rain = 0
KSC1 152002Z 08012KT 35/16 A2992 RMK A01 T03510158  RH  032%=      5-min Rain = 0
KSC1 152003Z 08013KT 35/16 A2991 RMK A01 T03470157  RH  032%=      5-min Rain = 0
KSC1 152004Z 09013KT 34/16 A2991 RMK A01 T03430156  RH  033%=      5-min Rain = 0
KSC1 152005Z 09014KT 34/15 A2991 RMK A01 T03410154  RH  033%=      5-min Rain = 0
KSC1 152006Z 09010G15KT 34/15 A2991 RMK A01 T03390152  RH  033%=      5-min Rain = 0
KSC1 152007Z 09014KT 34/15 A2991 RMK A01 T03360152  RH  033%=      5-min Rain = 0
KSC1 152008Z 09014KT 33/15 A2992 RMK A01 T03340152  RH  034%=      5-min Rain = 0
KSC1 152009Z 10014KT 33/15 A2992 RMK A01 T03330154  RH  034%=      5-min Rain = 0
KSC1 152010Z 08011KT 33/15 A2991 RMK A01 T03310154  RH  035%=      5-min Rain = 0
KSC1 152011Z 10008KT 33/15 A2991 RMK A01 T03300154  RH  035%=      5-min Rain = 0
KSC1 152012Z 09009G16KT 33/15 A2991 RMK A01 T03300154  RH  035%=      5-min Rain = 0
KSC1 152013Z 08014KT 33/16 A2991 RMK A01 T03340155  RH  034%=      5-min Rain = 0
KSC1 152014Z 09015KT 34/15 A2991 RMK A01 T03370153  RH  033%=      5-min Rain = 0
KSC1 152015Z 09012KT 34/15 A2991 RMK A01 T03390154  RH  033%=      5-min Rain = 0
KSC1 152016Z 08012G18KT 34/16 A2991 RMK A01 T03410156  RH  033%=      5-min Rain = 0
KSC1 152017Z 09011KT 34/16 A2991 RMK A01 T03420156  RH  033%=      5-min Rain = 0
KSC1 152018Z 10011KT 34/16 A2991 RMK A01 T03420157  RH  033%=      5-min Rain = 0
KSC1 152019Z 10012KT 35/16 A2991 RMK A01 T03470157  RH  032%=      5-min Rain = 0
KSC1 152020Z 08012G17KT 35/16 A2991 RMK A01 T03480156  RH  032%=      5-min Rain = 0
KSC1 152021Z 09013KT 35/16 A2991 RMK A01 T03470156  RH  032%=      5-min Rain = 0
KSC1 152022Z 11011KT 35/16 A2991 RMK A01 T03450155  RH  032%=      5-min Rain = 0
KSC1 152023Z 10014KT 35/16 A2991 RMK A01 T03460155  RH  032%=      5-min Rain = 0
KSC1 152024Z 09010G15KT 35/15 A299 RMK A01 T03480151  RH  031%=      5-min Rain = 0
KSC1 152025Z 09009KT 35/15 A299 RMK A01 T03450150  RH  031%=      5-min Rain = 0
KSC1 152026Z 09007KT 34/15 A299 RMK A01 T03440152  RH  032%=      5-min Rain = 0
KSC1 152027Z 10010KT 35/15 A299 RMK A01 T03480154  RH  032%=      5-min Rain = 0
KSC1 152028Z 11013G18KT 35/16 A299 RMK A01 T03530155  RH  031%=      5-min Rain = 0
KSC1 152029Z 10017G23KT 36/15 A299 RMK A01 T03550154  RH  030%=      5-min Rain = 0
KSC1 152030Z 10011KT 35/16 A299 RMK A01 T03510155  RH  031%=      5-min Rain = 0
KSC1 152031Z 11015KT 35/16 A299 RMK A01 T03500156  RH  031%=      5-min Rain = 0
KSC1 152032Z 10015KT 35/16 A299 RMK A01 T03470156  RH  032%=      5-min Rain = 0
KSC1 152033Z 13010KT 34/15 A299 RMK A01 T03430153  RH  032%=      5-min Rain = 0
KSC1 152034Z 10010KT 34/15 A299 RMK A01 T03420151  RH  032%=      5-min Rain = 0
KSC1 152035Z 10012KT 34/15 A299 RMK A01 T03420153  RH  032%=      5-min Rain = 0
KSC1 152036Z 09013KT 34/16 A2989 RMK A01 T03430155  RH  032%=      5-min Rain = 0
KSC1 152037Z 09014KT 35/15 A299 RMK A01 T03460152  RH  031%=      5-min Rain = 0
KSC1 152038Z 08014KT 35/15 A299 RMK A01 T03470152  RH  031%=      5-min Rain = 0
KSC1 152039Z 09012KT 34/15 A299 RMK A01 T03440154  RH  032%=      5-min Rain = 0
KSC1 152040Z 10015KT 34/15 A299 RMK A01 T03410153  RH  032%=      5-min Rain = 0
KSC1 152041Z 11014KT 34/15 A2989 RMK A01 T03380153  RH  033%=      5-min Rain = 0
KSC1 152042Z 11013KT 34/15 A2989 RMK A01 T03350154  RH  034%=      5-min Rain = 0
KSC1 152043Z 11013KT 33/15 A2989 RMK A01 T03330154  RH  034%=      5-min Rain = 0
KSC1 152044Z 11012G19KT 33/15 A2989 RMK A01 T03330154  RH  034%=      5-min Rain = 0
KSC1 152045Z 11013KT 33/15 A2989 RMK A01 T03340151  RH  033%=      5-min Rain = 0
KSC1 152046Z 09011KT 34/15 A2989 RMK A01 T03350150  RH  033%=      5-min Rain = 0
KSC1 152047Z 10015KT 34/15 A2989 RMK A01 T03360152  RH  033%=      5-min Rain = 0
KSC1 152048Z 10014KT 34/15 A2989 RMK A01 T03370153  RH  033%=      5-min Rain = 0
KSC1 152049Z 10013G21KT 34/16 A2989 RMK A01 T03380155  RH  033%=      5-min Rain = 0
KSC1 152050Z 11015KT 34/16 A2989 RMK A01 T03390157  RH  034%=      5-min Rain = 0
KSC1 152051Z 11017KT 34/16 A2989 RMK A01 T03390161  RH  034%=      5-min Rain = 0
KSC1 152052Z 10015KT 34/16 A2988 RMK A01 T03410161  RH  034%=      5-min Rain = 0
KSC1 152053Z 10014KT 34/16 A2988 RMK A01 T03400160  RH  034%=      5-min Rain = 0
KSC1 152054Z 09015KT 34/16 A2988 RMK A01 T03410161  RH  034%=      5-min Rain = 0
KSC1 152055Z 09016KT 34/16 A2988 RMK A01 T03410162  RH  034%=      5-min Rain = 0
KSC1 152056Z 10013G21KT 34/16 A2988 RMK A01 T03400161  RH  034%=      5-min Rain = 0
KSC1 152057Z 08018G24KT 34/17 A2987 RMK A01 T03430165  RH  035%=      5-min Rain = 0
KSC1 152058Z 09018KT 34/17 A2987 RMK A01 T03440165  RH  035%=      5-min Rain = 0
KSC1 152059Z 11017KT 34/16 A2987 RMK A01 T03440164  RH  034%=      5-min Rain = 0
KSC1 152100Z 11019KT 34/16 A2987 RMK A01 T03440164  RH  034%=      5-min Rain = 0
KSC1 152101Z 11018KT 34/17 A2986 RMK A01 T03440165  RH  034%=      5-min Rain = 0
KSC1 152102Z 11019KT 34/16 A2986 RMK A01 T03390163  RH  035%=      5-min Rain = 0
KSC1 152103Z 11019KT 34/16 A2986 RMK A01 T03360162  RH  035%=      5-min Rain = 0
KSC1 152104Z 10019KT 33/17 A2986 RMK A01 T03340165  RH  036%=      5-min Rain = 0
KSC1 152105Z 09017KT 33/17 A2986 RMK A01 T03330166  RH  037%=      5-min Rain = 0
KSC1 152106Z 09016G21KT 33/17 A2985 RMK A01 T03300165  RH  037%=      5-min Rain = 0
KSC1 152107Z 10015G20KT 33/17 A2985 RMK A01 T03290165  RH  037%=      5-min Rain = 0
KSC1 152108Z 12014KT 33/17 A2985 RMK A01 T03290165  RH  037%=      5-min Rain = 0
KSC1 152109Z 12011KT 33/17 A2985 RMK A01 T03310165  RH  037%=      5-min Rain = 0
KSC1 152110Z 10011G16KT 33/17 A2985 RMK A01 T03320166  RH  037%=      5-min Rain = 0
KSC1 152111Z 11015G20KT 33/17 A2985 RMK A01 T03340167  RH  037%=      5-min Rain = 0
KSC1 152112Z 10021G27KT 33/17 A2985 RMK A01 T03330168  RH  037%=      5-min Rain = 0
KSC1 152113Z 10018G25KT 33/17 A2984 RMK A01 T03300167  RH  038%=      5-min Rain = 0
KSC1 152114Z 10020KT 33/17 A2984 RMK A01 T03280167  RH  038%=      5-min Rain = 0
KSC1 152115Z 10022KT 33/17 A2984 RMK A01 T03280167  RH  038%=      5-min Rain = 0
KSC1 152116Z 11020KT 33/17 A2984 RMK A01 T03280166  RH  038%=      5-min Rain = 0
KSC1 152117Z 11018G23KT 33/17 A2984 RMK A01 T03270165  RH  038%=      5-min Rain = 0
KSC1 152118Z 11018KT 33/17 A2983 RMK A01 T03270165  RH  038%=      5-min Rain = 0
KSC1 152119Z 10016KT 33/17 A2983 RMK A01 T03270165  RH  038%=      5-min Rain = 0
KSC1 152120Z 09018G24KT 33/17 A2983 RMK A01 T03270166  RH  038%=      5-min Rain = 0
KSC1 152121Z 10019KT 33/17 A2983 RMK A01 T03270166  RH  038%=      5-min Rain = 0
KSC1 152122Z 11017KT 33/17 A2983 RMK A01 T03270167  RH  038%=      5-min Rain = 0
KSC1 152123Z 10020G25KT 33/17 A2983 RMK A01 T03270167  RH  038%=      5-min Rain = 0
KSC1 152124Z 10020G25KT 33/17 A2983 RMK A01 T03270166  RH  038%=      5-min Rain = 0
KSC1 152125Z 10021G27KT 33/17 A2983 RMK A01 T03260165  RH  038%=      5-min Rain = 0
KSC1 152126Z 11018KT 32/16 A2983 RMK A01 T03240164  RH  038%=      5-min Rain = 0
KSC1 152127Z 11019KT 32/17 A2982 RMK A01 T03240165  RH  038%=      5-min Rain = 0
KSC1 152128Z 12016KT 32/16 A2982 RMK A01 T03240164  RH  038%=      5-min Rain = 0
KSC1 152129Z 10017KT 32/17 A2982 RMK A01 T03240165  RH  039%=      5-min Rain = 0
KSC1 152130Z 10017G24KT 32/17 A2983 RMK A01 T03230165  RH  039%=      5-min Rain = 0
KSC1 152131Z 09011KT 32/17 A2984 RMK A01 T03220165  RH  039%=      5-min Rain = 0
KSC1 152132Z 09005G13KT 32/17 A2986 RMK A01 T03210166  RH  039%=      5-min Rain = 0
KSC1 152133Z 22003KT 32/17 A2988 RMK A01 T03210166  RH  039%=      5-min Rain = 0
KSC1 152134Z 25010G15KT 32/17 A2989 RMK A01 T03220166  RH  039%=      5-min Rain = 0
KSC1 152135Z 25014G21KT 32/16 A2988 RMK A01 T03150160  RH  039%=      5-min Rain = 0
KSC1 152136Z 26013G18KT 29/15 A2987 RMK A01 T02850153  RH  045%=      5-min Rain = 0
KSC1 152137Z 34019G24KT 26/15 A2989 RMK A01 T02640153  RH  051%=      5-min Rain = 0
KSC1 152138Z 34024G37KT 26/16 A299 RMK A01 T02560155  RH  054%=      5-min Rain = 0
KSC1 152139Z 36022G33KT 25/15 A299 RMK A01 T02500153  RH  055%=      5-min Rain = 0
KSC1 152140Z 02022G30KT 24/16 A2989 RMK A01 T02400158  RH  060%=      5-min Rain = 0
KSC1 152141Z 34026G47KT 22/16 A2987 RMK A01 T02240160  RH  067%=      5-min Rain = 0
KSC1 152142Z 34045G55KT 20/16 A2987 RMK A01 T02040156  RH  074%=      5-min Rain = 0.06
KSC1 152143Z 34048G63KT 18/16 A2989 RMK A01 T01840155  RH  083%=      5-min Rain = 0.1
KSC1 152144Z 34038G45KT 17/16 A2991 RMK A01 T01740156  RH  089%=      5-min Rain = 0.08
KSC1 152145Z 33036G47KT 17/16 A2992 RMK A01 T01690156  RH  092%=      5-min Rain = 0.08
KSC1 152146Z 34032G40KT 17/16 A2995 RMK A01 T01650155  RH  094%=      5-min Rain = 0.07
KSC1 152147Z 34037G49KT 17/16 A2996 RMK A01 T01660161  RH  096%=      5-min Rain = 0.08
KSC1 152148Z 35027G43KT 17/17 A2997 RMK A01 T01730170  RH  098%=      5-min Rain = 0.07
KSC1 152149Z 00021G26KT 18/17 A2997 RMK A01 T01750171  RH  098%=      5-min Rain = 0.06
KSC1 152150Z 01019KT 17/17 A2997 RMK A01 T01740170  RH  098%=      5-min Rain = 0.04
KSC1 152151Z 02019KT 17/17 A2995 RMK A01 T01720168  RH  098%=      5-min Rain = 0.03
KSC1 152152Z 02021G27KT 17/17 A2995 RMK A01 T01740171  RH  098%=      5-min Rain = 0.02
KSC1 152153Z 02021G28KT 18/17 A2994 RMK A01 T01750172  RH  098%=      5-min Rain = 0.02
KSC1 152154Z 03019KT 18/17 A2994 RMK A01 T01770174  RH  098%=      5-min Rain = 0.01
KSC1 152155Z 04014KT 18/18 A2994 RMK A01 T01790176  RH  098%=      5-min Rain = 0.02
KSC1 152156Z 04018KT 18/18 A2994 RMK A01 T01820176  RH  096%=      5-min Rain = 0.01
KSC1 152157Z 04018G23KT 19/17 A2994 RMK A01 T01860168  RH  089%=      5-min Rain = 0
KSC1 152158Z 05014KT 19/16 A2993 RMK A01 T01930163  RH  083%=      5-min Rain = 0
KSC1 152159Z 05015KT 20/16 A2993 RMK A01 T01970160  RH  079%=      5-min Rain = 0.01
KSC1 152200Z 06012KT 20/16 A2994 RMK A01 T02010159  RH  077%=      5-min Rain = 0.01
KSC1 152201Z 07011KT 20/16 A2993 RMK A01 T02020162  RH  078%=      5-min Rain = 0
KSC1 152202Z 08010KT 20/16 A2993 RMK A01 T02020161  RH  078%=      5-min Rain = 0.01
KSC1 152203Z 10012KT 20/16 A2993 RMK A01 T02020163  RH  078%=      5-min Rain = 0.01
KSC1 152204Z 08012KT 20/17 A2993 RMK A01 T02000166  RH  080%=      5-min Rain = 0.01
KSC1 152205Z 08012KT 20/16 A2993 RMK A01 T01980163  RH  080%=      5-min Rain = 0.01
KSC1 152206Z 09009KT 20/16 A2993 RMK A01 T01980163  RH  080%=      5-min Rain = 0.02
KSC1 152207Z 10010KT 20/17 A2993 RMK A01 T01980167  RH  082%=      5-min Rain = 0.01
KSC1 152208Z 10008KT 20/17 A2992 RMK A01 T01960168  RH  084%=      5-min Rain = 0.02
KSC1 152209Z 12005KT 19/17 A2992 RMK A01 T01940170  RH  086%=      5-min Rain = 0
KSC1 152210Z 13005KT 19/17 A2992 RMK A01 T01920174  RH  089%=      5-min Rain = 0.01
KSC1 152211Z 13005KT 19/17 A2993 RMK A01 T01920174  RH  089%=      5-min Rain = 0.01
KSC1 152212Z 14006KT 19/17 A2993 RMK A01 T01930174  RH  089%=      5-min Rain = 0
KSC1 152213Z 15007KT 20/18 A2993 RMK A01 T01950177  RH  089%=      5-min Rain = 0
KSC1 152214Z 16008KT 20/18 A2993 RMK A01 T01980179  RH  089%=      5-min Rain = 0
KSC1 152215Z 17011KT 20/18 A2993 RMK A01 T02000183  RH  090%=      5-min Rain = 0
KSC1 152216Z 17010KT 20/18 A2994 RMK A01 T02030184  RH  089%=      5-min Rain = 0
KSC1 152217Z 17010KT 21/19 A2994 RMK A01 T02070186  RH  088%=      5-min Rain = 0
KSC1 152218Z 17009KT 21/19 A2994 RMK A01 T02100186  RH  086%=      5-min Rain = 0
KSC1 152219Z 17008KT 21/19 A2993 RMK A01 T02120186  RH  085%=      5-min Rain = 0
KSC1 152220Z 16007KT 21/19 A2993 RMK A01 T02140187  RH  085%=      5-min Rain = 0
KSC1 152221Z 16006KT 22/19 A2993 RMK A01 T02160191  RH  086%=      5-min Rain = 0
KSC1 152222Z 14006KT 22/19 A2993 RMK A01 T02200191  RH  084%=      5-min Rain = 0
KSC1 152223Z 13006KT 22/19 A2992 RMK A01 T02240187  RH  080%=      5-min Rain = 0
KSC1 152224Z 14007KT 23/18 A2992 RMK A01 T02280184  RH  076%=      5-min Rain = 0
KSC1 152225Z 14006KT 23/19 A2992 RMK A01 T02320186  RH  075%=      5-min Rain = 0
KSC1 152226Z 13005KT 23/19 A2992 RMK A01 T02340187  RH  075%=      5-min Rain = 0
KSC1 152227Z 12004KT 24/19 A2992 RMK A01 T02350189  RH  076%=      5-min Rain = 0
KSC1 152228Z 11004KT 24/19 A2992 RMK A01 T02350191  RH  076%=      5-min Rain = 0
KSC1 152229Z 08004KT 24/19 A2992 RMK A01 T02360194  RH  077%=      5-min Rain = 0
KSC1 152230Z 07003KT 24/20 A2992 RMK A01 T02370195  RH  077%=      5-min Rain = 0
KSC1 152231Z 06004KT 24/19 A2992 RMK A01 T02370193  RH  076%=      5-min Rain = 0
KSC1 152232Z 06003KT 24/20 A2992 RMK A01 T02370195  RH  077%=      5-min Rain = 0
KSC1 152233Z 04003KT 24/20 A2992 RMK A01 T02370195  RH  078%=      5-min Rain = 0
KSC1 152234Z 06003KT 24/20 A2991 RMK A01 T02370196  RH  078%=      5-min Rain = 0
KSC1 152235Z 09003KT 24/20 A2991 RMK A01 T02380195  RH  077%=      5-min Rain = 0
KSC1 152236Z 08002KT 24/20 A2991 RMK A01 T02400195  RH  076%=      5-min Rain = 0
KSC1 152237Z 08003KT 24/20 A2991 RMK A01 T02410195  RH  075%=      5-min Rain = 0
KSC1 152238Z 10004KT 24/20 A2991 RMK A01 T02420195  RH  075%=      5-min Rain = 0
KSC1 152239Z 10004KT 24/20 A2991 RMK A01 T02430199  RH  076%=      5-min Rain = 0
KSC1 152240Z 10007KT 25/20 A2991 RMK A01 T02450199  RH  075%=      5-min Rain = 0
KSC1 152241Z 10008KT 25/20 A299 RMK A01 T02480195  RH  073%=      5-min Rain = 0
KSC1 152242Z 09008KT 25/20 A299 RMK A01 T02520198  RH  072%=      5-min Rain = 0
KSC1 152243Z 09008KT 26/20 A299 RMK A01 T02550199  RH  071%=      5-min Rain = 0
KSC1 152244Z 09010KT 26/20 A299 RMK A01 T02580197  RH  069%=      5-min Rain = 0
KSC1 152245Z 09009KT 26/20 A2989 RMK A01 T02600195  RH  067%=      5-min Rain = 0
KSC1 152246Z 08009KT 26/19 A2989 RMK A01 T02620194  RH  066%=      5-min Rain = 0
KSC1 152247Z 08008KT 26/19 A2989 RMK A01 T02630194  RH  066%=      5-min Rain = 0
KSC1 152248Z 08008KT 26/20 A2989 RMK A01 T02630195  RH  066%=      5-min Rain = 0
KSC1 152249Z 08008KT 26/19 A2989 RMK A01 T02640194  RH  065%=      5-min Rain = 0
KSC1 152250Z 08009KT 27/19 A2988 RMK A01 T02650191  RH  064%=      5-min Rain = 0
KSC1 152251Z 08007KT 27/19 A2988 RMK A01 T02660192  RH  064%=      5-min Rain = 0
KSC1 152252Z 08007KT 27/19 A2988 RMK A01 T02680192  RH  063%=      5-min Rain = 0
KSC1 152253Z 08009KT 27/19 A2988 RMK A01 T02680191  RH  063%=      5-min Rain = 0
KSC1 152254Z 08009KT 27/19 A2988 RMK A01 T02690186  RH  061%=      5-min Rain = 0
KSC1 152255Z 09007KT 27/19 A2987 RMK A01 T02690187  RH  061%=      5-min Rain = 0
KSC1 152256Z 08009KT 27/19 A2987 RMK A01 T02700190  RH  062%=      5-min Rain = 0
KSC1 152257Z 07006KT 27/19 A2987 RMK A01 T02690191  RH  062%=      5-min Rain = 0
KSC1 152258Z 07005KT 27/20 A2987 RMK A01 T02700199  RH  065%=      5-min Rain = 0
KSC1 152259Z 06006KT 27/20 A2987 RMK A01 T02700200  RH  066%=      5-min Rain = 0
KSC1 152300Z 07008KT 27/19 A2987 RMK A01 T02710193  RH  063%=      5-min Rain = 0
KSC1 152301Z 07010KT 27/19 A2986 RMK A01 T02700188  RH  061%=      5-min Rain = 0
KSC1 152302Z 08009KT 27/19 A2986 RMK A01 T02690187  RH  061%=      5-min Rain = 0
KSC1 152303Z 08009KT 27/19 A2986 RMK A01 T02700187  RH  060%=      5-min Rain = 0
KSC1 152304Z 08009KT 27/18 A2986 RMK A01 T02720183  RH  058%=      5-min Rain = 0
KSC1 152305Z 09008KT 27/19 A2986 RMK A01 T02740188  RH  059%=      5-min Rain = 0
KSC1 152306Z 09009KT 28/19 A2986 RMK A01 T02750188  RH  059%=      5-min Rain = 0
KSC1 152307Z 08007KT 28/19 A2986 RMK A01 T02760191  RH  060%=      5-min Rain = 0
KSC1 152308Z 09007KT 28/19 A2985 RMK A01 T02760192  RH  060%=      5-min Rain = 0
KSC1 152309Z 10006KT 28/19 A2985 RMK A01 T02750194  RH  061%=      5-min Rain = 0
KSC1 152310Z 11008KT 28/20 A2985 RMK A01 T02750199  RH  063%=      5-min Rain = 0
KSC1 152311Z 11010KT 28/19 A2985 RMK A01 T02770194  RH  061%=      5-min Rain = 0
KSC1 152312Z 11010KT 28/19 A2985 RMK A01 T02800190  RH  058%=      5-min Rain = 0
KSC1 152313Z 12009KT 28/19 A2985 RMK A01 T02820187  RH  057%=      5-min Rain = 0
KSC1 152314Z 12010KT 28/19 A2986 RMK A01 T02830185  RH  055%=      5-min Rain = 0
KSC1 152315Z 11010KT 28/19 A2986 RMK A01 T02830189  RH  057%=      5-min Rain = 0
KSC1 152316Z 12009KT 28/19 A2986 RMK A01 T02830186  RH  056%=      5-min Rain = 0
KSC1 152317Z 12008KT 28/19 A2986 RMK A01 T02830188  RH  056%=      5-min Rain = 0
KSC1 152318Z 12010KT 28/18 A2986 RMK A01 T02830182  RH  054%=      5-min Rain = 0
KSC1 152319Z 11009KT 28/18 A2986 RMK A01 T02840178  RH  053%=      5-min Rain = 0
KSC1 152320Z 12012KT 29/17 A2986 RMK A01 T02850174  RH  051%=      5-min Rain = 0
KSC1 152321Z 11015KT 29/17 A2986 RMK A01 T02860168  RH  049%=      5-min Rain = 0
KSC1 152322Z 11013KT 29/17 A2986 RMK A01 T02860169  RH  049%=      5-min Rain = 0
KSC1 152323Z 11014KT 29/17 A2986 RMK A01 T02870171  RH  050%=      5-min Rain = 0
KSC1 152324Z 11012KT 29/17 A2986 RMK A01 T02860172  RH  050%=      5-min Rain = 0
KSC1 152325Z 12011KT 29/17 A2986 RMK A01 T02860169  RH  049%=      5-min Rain = 0
KSC1 152326Z 12011KT 29/17 A2986 RMK A01 T02860174  RH  051%=      5-min Rain = 0
KSC1 152327Z 12012KT 29/17 A2987 RMK A01 T02860174  RH  051%=      5-min Rain = 0
KSC1 152328Z 13013KT 29/18 A2987 RMK A01 T02870181  RH  053%=      5-min Rain = 0
KSC1 152329Z 14012KT 28/19 A2987 RMK A01 T02840187  RH  055%=      5-min Rain = 0
KSC1 152330Z 14011KT 28/19 A2987 RMK A01 T02810187  RH  057%=      5-min Rain = 0
KSC1 152331Z 14016G21KT 28/19 A2988 RMK A01 T02790191  RH  059%=      5-min Rain = 0
KSC1 152332Z 15018KT 28/19 A2988 RMK A01 T02760190  RH  059%=      5-min Rain = 0
KSC1 152333Z 15017KT 27/19 A2988 RMK A01 T02700187  RH  060%=      5-min Rain = 0
KSC1 152334Z 14014KT 27/19 A2989 RMK A01 T02660185  RH  061%=      5-min Rain = 0
KSC1 152335Z 14014G19KT 26/19 A2989 RMK A01 T02630185  RH  062%=      5-min Rain = 0
KSC1 152336Z 15016KT 26/18 A2989 RMK A01 T02620184  RH  062%=      5-min Rain = 0
KSC1 152337Z 15016KT 26/18 A2989 RMK A01 T02600181  RH  062%=      5-min Rain = 0
KSC1 152338Z 15014KT 26/18 A2989 RMK A01 T02580181  RH  062%=      5-min Rain = 0
KSC1 152339Z 16020G27KT 26/18 A299 RMK A01 T02580180  RH  062%=      5-min Rain = 0
KSC1 152340Z 15021G27KT 26/18 A299 RMK A01 T02570178  RH  061%=      5-min Rain = 0
KSC1 152341Z 15019G25KT 26/18 A299 RMK A01 T02560177  RH  062%=      5-min Rain = 0
KSC1 152342Z 16016KT 26/18 A2991 RMK A01 T02550180  RH  063%=      5-min Rain = 0
KSC1 152343Z 16019KT 25/18 A2991 RMK A01 T02540177  RH  062%=      5-min Rain = 0
KSC1 152344Z 16019G29KT 25/18 A2991 RMK A01 T02520176  RH  063%=      5-min Rain = 0
KSC1 152345Z 16023G29KT 25/17 A2991 RMK A01 T02510174  RH  062%=      5-min Rain = 0
KSC1 152346Z 16022KT 25/17 A2991 RMK A01 T02480165  RH  060%=      5-min Rain = 0
KSC1 152347Z 16017G24KT 24/16 A2991 RMK A01 T02430162  RH  060%=      5-min Rain = 0
KSC1 152348Z 16022KT 24/16 A299 RMK A01 T02410160  RH  061%=      5-min Rain = 0
KSC1 152349Z 15015G22KT 24/16 A299 RMK A01 T02410159  RH  060%=      5-min Rain = 0
KSC1 152350Z 15017G26KT 24/16 A299 RMK A01 T02410160  RH  060%=      5-min Rain = 0
KSC1 152351Z 16019G24KT 24/16 A2991 RMK A01 T02430160  RH  060%=      5-min Rain = 0
KSC1 152352Z 16018G25KT 24/16 A2991 RMK A01 T02430162  RH  061%=      5-min Rain = 0
KSC1 152353Z 16020G27KT 24/16 A2991 RMK A01 T02410160  RH  061%=      5-min Rain = 0
KSC1 152354Z 16018G23KT 24/16 A2991 RMK A01 T02390158  RH  061%=      5-min Rain = 0
KSC1 152355Z 16021KT 24/16 A2991 RMK A01 T02380156  RH  060%=      5-min Rain = 0
KSC1 152356Z 16020KT 24/16 A2991 RMK A01 T02370156  RH  060%=      5-min Rain = 0
KSC1 152357Z 16019KT 24/16 A2991 RMK A01 T02370156  RH  060%=      5-min Rain = 0
KSC1 152358Z 16015KT 24/16 A2991 RMK A01 T02370157  RH  061%=      5-min Rain = 0
KSC1 152359Z 15017KT 24/16 A2991 RMK A01 T02370156  RH  060%=      5-min Rain = 0
KSC1 160000Z 16014KT 24/16 A2991 RMK A01 T02380158  RH  061%=      5-min Rain = 0
KSC1 160001Z 15014G19KT 24/16 A2991 RMK A01 T02390158  RH  060%=      5-min Rain = 0
KSC1 160002Z 16015KT 24/16 A299 RMK A01 T02400156  RH  059%=      5-min Rain = 0
KSC1 160003Z 15016G21KT 24/16 A299 RMK A01 T02400155  RH  059%=      5-min Rain = 0
KSC1 160004Z 16013G19KT 24/16 A299 RMK A01 T02410156  RH  059%=      5-min Rain = 0
KSC1 160005Z 16020KT 24/16 A299 RMK A01 T02420155  RH  058%=      5-min Rain = 0
KSC1 160006Z 16019G24KT 24/15 A299 RMK A01 T02430153  RH  057%=      5-min Rain = 0
KSC1 160007Z 17016G22KT 24/15 A299 RMK A01 T02420154  RH  058%=      5-min Rain = 0
KSC1 160008Z 16014G20KT 24/15 A299 RMK A01 T02410154  RH  058%=      5-min Rain = 0
KSC1 160009Z 17012G17KT 24/15 A299 RMK A01 T02410154  RH  058%=      5-min Rain = 0
KSC1 160010Z 16014KT 24/15 A299 RMK A01 T02410154  RH  058%=      5-min Rain = 0
KSC1 160011Z 16013KT 24/15 A299 RMK A01 T02410154  RH  058%=      5-min Rain = 0
KSC1 160012Z 16016G21KT 24/15 A299 RMK A01 T02410153  RH  058%=      5-min Rain = 0
KSC1 160013Z 16015G22KT 24/15 A2989 RMK A01 T02410151  RH  057%=      5-min Rain = 0
KSC1 160014Z 15016KT 24/15 A299 RMK A01 T02420153  RH  058%=      5-min Rain = 0
KSC1 160015Z 15015G21KT 24/15 A2989 RMK A01 T02420152  RH  057%=      5-min Rain = 0
KSC1 160016Z 15015KT 24/15 A299 RMK A01 T02420153  RH  058%=      5-min Rain = 0
KSC1 160017Z 16015G20KT 24/15 A2989 RMK A01 T02420154  RH  058%=      5-min Rain = 0
KSC1 160018Z 16012KT 24/16 A299 RMK A01 T02430156  RH  058%=      5-min Rain = 0
KSC1 160019Z 16012G17KT 24/16 A2989 RMK A01 T02430157  RH  059%=      5-min Rain = 0
KSC1 160020Z 16013G18KT 24/16 A2989 RMK A01 T02440157  RH  058%=      5-min Rain = 0
KSC1 160021Z 15015KT 24/16 A2989 RMK A01 T02440158  RH  058%=      5-min Rain = 0
KSC1 160022Z 16016G21KT 25/16 A2989 RMK A01 T02450156  RH  058%=      5-min Rain = 0
KSC1 160023Z 16015KT 25/16 A2989 RMK A01 T02450156  RH  058%=      5-min Rain = 0
KSC1 160024Z 16012KT 25/16 A2989 RMK A01 T02450156  RH  058%=      5-min Rain = 0
KSC1 160025Z 16012G18KT 25/16 A2989 RMK A01 T02450157  RH  058%=      5-min Rain = 0
KSC1 160026Z 16015G20KT 25/16 A2989 RMK A01 T02450156  RH  058%=      5-min Rain = 0
KSC1 160027Z 16012G17KT 25/16 A2989 RMK A01 T02450157  RH  058%=      5-min Rain = 0
KSC1 160028Z 15009KT 25/16 A2989 RMK A01 T02460158  RH  058%=      5-min Rain = 0
KSC1 160029Z 15011KT 25/16 A2989 RMK A01 T02460158  RH  058%=      5-min Rain = 0
KSC1 160030Z 16012KT 25/16 A2989 RMK A01 T02470157  RH  057%=      5-min Rain = 0
KSC1 160031Z 15013KT 25/16 A2989 RMK A01 T02470156  RH  057%=      5-min Rain = 0
KSC1 160032Z 15011KT 25/16 A2989 RMK A01 T02480155  RH  056%=      5-min Rain = 0
KSC1 160033Z 15011KT 25/16 A2989 RMK A01 T02480157  RH  057%=      5-min Rain = 0
KSC1 160034Z 15013KT 25/16 A2989 RMK A01 T02480157  RH  057%=      5-min Rain = 0
KSC1 160035Z 14015KT 25/16 A2989 RMK A01 T02480157  RH  057%=      5-min Rain = 0
KSC1 160036Z 15014G20KT 25/16 A2989 RMK A01 T02490157  RH  056%=      5-min Rain = 0
KSC1 160037Z 14014KT 25/16 A2989 RMK A01 T02490156  RH  056%=      5-min Rain = 0
KSC1 160038Z 14012KT 25/16 A2989 RMK A01 T02500157  RH  056%=      5-min Rain = 0
KSC1 160039Z 15010KT 25/16 A2989 RMK A01 T02490158  RH  057%=      5-min Rain = 0
KSC1 160040Z 15011KT 25/16 A2989 RMK A01 T02490159  RH  057%=      5-min Rain = 0
KSC1 160041Z 15010KT 25/16 A2989 RMK A01 T02490158  RH  057%=      5-min Rain = 0
KSC1 160042Z 15010KT 25/16 A2989 RMK A01 T02490159  RH  057%=      5-min Rain = 0
KSC1 160043Z 14009G14KT 25/16 A2989 RMK A01 T02480159  RH  058%=      5-min Rain = 0
KSC1 160044Z 14010G15KT 25/16 A2989 RMK A01 T02490159  RH  057%=      5-min Rain = 0
KSC1 160045Z 14011KT 25/16 A2989 RMK A01 T02480157  RH  057%=      5-min Rain = 0
KSC1 160046Z 13012KT 25/16 A2989 RMK A01 T02470158  RH  058%=      5-min Rain = 0
KSC1 160047Z 13012KT 25/16 A2989 RMK A01 T02460159  RH  058%=      5-min Rain = 0
KSC1 160048Z 14012KT 25/16 A2989 RMK A01 T02460159  RH  059%=      5-min Rain = 0
KSC1 160049Z 14009KT 25/16 A2989 RMK A01 T02450161  RH  059%=      5-min Rain = 0
KSC1 160050Z 14009KT 24/16 A2989 RMK A01 T02440163  RH  060%=      5-min Rain = 0
KSC1 160051Z 14011KT 24/16 A2989 RMK A01 T02440162  RH  060%=      5-min Rain = 0
KSC1 160052Z 14012KT 24/16 A2989 RMK A01 T02440160  RH  060%=      5-min Rain = 0
KSC1 160053Z 14010KT 24/16 A2989 RMK A01 T02440161  RH  060%=      5-min Rain = 0
KSC1 160054Z 14011KT 24/16 A2989 RMK A01 T02440161  RH  060%=      5-min Rain = 0
KSC1 160055Z 14011KT 24/16 A2989 RMK A01 T02430161  RH  060%=      5-min Rain = 0
KSC1 160056Z 15012KT 24/16 A2989 RMK A01 T02430161  RH  060%=      5-min Rain = 0
KSC1 160057Z 14012KT 24/16 A2989 RMK A01 T02430160  RH  060%=      5-min Rain = 0
KSC1 160058Z 15012KT 24/16 A2989 RMK A01 T02430159  RH  060%=      5-min Rain = 0
KSC1 160059Z 15011KT 24/16 A2989 RMK A01 T02430161  RH  060%=      5-min Rain = 0
KSC1 160100Z 15010KT 24/16 A2989 RMK A01 T02420161  RH  061%=      5-min Rain = 0
KSC1 160101Z 15011KT 24/16 A2989 RMK A01 T02420160  RH  060%=      5-min Rain = 0
KSC1 160102Z 15010KT 24/16 A2989 RMK A01 T02410160  RH  060%=      5-min Rain = 0
KSC1 160103Z 14012KT 24/16 A2989 RMK A01 T02410160  RH  061%=      5-min Rain = 0
KSC1 160104Z 14010KT 24/16 A2989 RMK A01 T02400160  RH  061%=      5-min Rain = 0
KSC1 160105Z 13008KT 24/16 A2989 RMK A01 T02400161  RH  061%=      5-min Rain = 0
KSC1 160106Z 12006KT 24/16 A2989 RMK A01 T02390161  RH  062%=      5-min Rain = 0
KSC1 160107Z 12008KT 24/16 A2989 RMK A01 T02380162  RH  062%=      5-min Rain = 0
KSC1 160108Z 11007KT 24/16 A299 RMK A01 T02380162  RH  062%=      5-min Rain = 0
KSC1 160109Z 07006KT 24/16 A299 RMK A01 T02380163  RH  063%=      5-min Rain = 0
KSC1 160110Z 07007KT 24/16 A299 RMK A01 T02370163  RH  063%=      5-min Rain = 0
KSC1 160111Z 05008KT 24/16 A2991 RMK A01 T02360164  RH  064%=      5-min Rain = 0
KSC1 160112Z 05009KT 24/17 A2991 RMK A01 T02360165  RH  065%=      5-min Rain = 0
KSC1 160113Z 06008KT 23/17 A2991 RMK A01 T02340166  RH  065%=      5-min Rain = 0
KSC1 160114Z 06010KT 23/17 A2991 RMK A01 T02340165  RH  065%=      5-min Rain = 0
KSC1 160115Z 05011KT 23/17 A2991 RMK A01 T02330165  RH  066%=      5-min Rain = 0
KSC1 160116Z 06012KT 23/17 A2992 RMK A01 T02320166  RH  066%=      5-min Rain = 0
KSC1 160117Z 06010KT 23/17 A2992 RMK A01 T02320165  RH  066%=      5-min Rain = 0
KSC1 160118Z 08009G15KT 23/17 A2992 RMK A01 T02320166  RH  066%=      5-min Rain = 0
KSC1 160119Z 09009KT 23/17 A2992 RMK A01 T02310165  RH  066%=      5-min Rain = 0
KSC1 160120Z 10010KT 23/17 A2992 RMK A01 T02310165  RH  067%=      5-min Rain = 0
KSC1 160121Z 11010KT 23/17 A2992 RMK A01 T02310166  RH  067%=      5-min Rain = 0
KSC1 160122Z 11009KT 23/17 A2992 RMK A01 T02300167  RH  067%=      5-min Rain = 0
KSC1 160123Z 12008KT 23/17 A2992 RMK A01 T02300167  RH  068%=      5-min Rain = 0
KSC1 160124Z 11008KT 23/17 A2991 RMK A01 T02290167  RH  068%=      5-min Rain = 0
KSC1 160125Z 11007KT 23/17 A2992 RMK A01 T02290167  RH  068%=      5-min Rain = 0
KSC1 160126Z 09007KT 23/17 A2992 RMK A01 T02290167  RH  068%=      5-min Rain = 0
KSC1 160127Z 08008KT 23/17 A2992 RMK A01 T02290165  RH  067%=      5-min Rain = 0
KSC1 160128Z 07007KT 23/17 A2992 RMK A01 T02290166  RH  067%=      5-min Rain = 0
KSC1 160129Z 07008KT 23/17 A2992 RMK A01 T02290168  RH  068%=      5-min Rain = 0
KSC1 160130Z 07008KT 23/17 A2993 RMK A01 T02280168  RH  069%=      5-min Rain = 0
KSC1 160131Z 05008KT 23/17 A2993 RMK A01 T02280168  RH  069%=      5-min Rain = 0
KSC1 160132Z 05008KT 23/17 A2992 RMK A01 T02270169  RH  070%=      5-min Rain = 0
KSC1 160133Z 05008KT 23/17 A2992 RMK A01 T02260168  RH  070%=      5-min Rain = 0
KSC1 160134Z 05008KT 23/17 A2992 RMK A01 T02260167  RH  069%=      5-min Rain = 0
KSC1 160135Z 05008KT 23/17 A2992 RMK A01 T02260166  RH  069%=      5-min Rain = 0
KSC1 160136Z 06007KT 23/16 A2992 RMK A01 T02260164  RH  068%=      5-min Rain = 0
KSC1 160137Z 07006KT 23/16 A2992 RMK A01 T02260163  RH  068%=      5-min Rain = 0
KSC1 160138Z 07008KT 23/16 A2992 RMK A01 T02260162  RH  067%=      5-min Rain = 0
KSC1 160139Z 08008KT 23/16 A2992 RMK A01 T02260161  RH  067%=      5-min Rain = 0
KSC1 160140Z 08009KT 23/16 A2992 RMK A01 T02270161  RH  066%=      5-min Rain = 0
KSC1 160141Z 09007KT 23/16 A2992 RMK A01 T02270161  RH  066%=      5-min Rain = 0
KSC1 160142Z 09008KT 23/16 A2992 RMK A01 T02260161  RH  066%=      5-min Rain = 0
KSC1 160143Z 09008KT 23/16 A2992 RMK A01 T02260159  RH  066%=      5-min Rain = 0
KSC1 160144Z 10009KT 23/16 A2992 RMK A01 T02260159  RH  066%=      5-min Rain = 0
KSC1 160145Z 10008KT 23/16 A2992 RMK A01 T02260158  RH  065%=      5-min Rain = 0
KSC1 160146Z 10007KT 23/16 A2991 RMK A01 T02250158  RH  066%=      5-min Rain = 0
KSC1 160147Z 10007KT 23/16 A2991 RMK A01 T02250159  RH  066%=      5-min Rain = 0
KSC1 160148Z 09008KT 22/16 A2991 RMK A01 T02240158  RH  066%=      5-min Rain = 0
KSC1 160149Z 10006KT 22/16 A2991 RMK A01 T02240157  RH  066%=      5-min Rain = 0
KSC1 160150Z 09006KT 22/16 A2992 RMK A01 T02230157  RH  066%=      5-min Rain = 0
KSC1 160151Z 09007KT 22/16 A2992 RMK A01 T02230156  RH  066%=      5-min Rain = 0
KSC1 160152Z 08008KT 22/16 A2992 RMK A01 T02230155  RH  066%=      5-min Rain = 0
KSC1 160153Z 07008KT 22/15 A2992 RMK A01 T02220153  RH  065%=      5-min Rain = 0
KSC1 160154Z 07006KT 22/15 A2992 RMK A01 T02220153  RH  065%=      5-min Rain = 0
KSC1 160155Z 07008KT 22/15 A2992 RMK A01 T02220154  RH  065%=      5-min Rain = 0
KSC1 160156Z 07008KT 22/15 A2992 RMK A01 T02210153  RH  065%=      5-min Rain = 0
KSC1 160157Z 07006KT 22/15 A2993 RMK A01 T02210153  RH  065%=      5-min Rain = 0
KSC1 160158Z 06006KT 22/15 A2993 RMK A01 T02200153  RH  065%=      5-min Rain = 0
KSC1 160159Z 07005KT 22/15 A2992 RMK A01 T02200153  RH  066%=      5-min Rain = 0
KSC1 160200Z 07007KT 22/15 A2992 RMK A01 T02190152  RH  066%=      5-min Rain = 0
KSC1 160201Z 09006KT 22/15 A2992 RMK A01 T02190152  RH  065%=      5-min Rain = 0
KSC1 160202Z 10005KT 22/15 A2992 RMK A01 T02190152  RH  066%=      5-min Rain = 0
KSC1 160203Z 10006KT 22/15 A2992 RMK A01 T02190153  RH  066%=      5-min Rain = 0
KSC1 160204Z 11007KT 22/15 A2992 RMK A01 T02180152  RH  066%=      5-min Rain = 0
KSC1 160205Z 11006KT 22/15 A2992 RMK A01 T02180152  RH  066%=      5-min Rain = 0
KSC1 160206Z 11006KT 22/15 A2992 RMK A01 T02180151  RH  066%=      5-min Rain = 0
KSC1 160207Z 11004KT 22/15 A2991 RMK A01 T02180151  RH  066%=      5-min Rain = 0
KSC1 160208Z 11005KT 22/15 A2991 RMK A01 T02180152  RH  066%=      5-min Rain = 0
KSC1 160209Z 10004KT 22/15 A2991 RMK A01 T02180151  RH  066%=      5-min Rain = 0
KSC1 160210Z 09005KT 22/15 A2991 RMK A01 T02180151  RH  066%=      5-min Rain = 0
KSC1 160211Z 08004KT 22/15 A2992 RMK A01 T02180151  RH  066%=      5-min Rain = 0
KSC1 160212Z 08005KT 22/15 A2992 RMK A01 T02180151  RH  066%=      5-min Rain = 0
KSC1 160213Z 08005KT 22/15 A2992 RMK A01 T02180150  RH  065%=      5-min Rain = 0
KSC1 160214Z 07006KT 22/15 A2992 RMK A01 T02170150  RH  065%=      5-min Rain = 0
KSC1 160215Z 07005KT 22/15 A2992 RMK A01 T02170150  RH  066%=      5-min Rain = 0
KSC1 160216Z 06006KT 22/15 A2993 RMK A01 T02170152  RH  066%=      5-min Rain = 0
KSC1 160217Z 07006KT 22/15 A2993 RMK A01 T02160152  RH  066%=      5-min Rain = 0
KSC1 160218Z 06006KT 22/15 A2993 RMK A01 T02160152  RH  067%=      5-min Rain = 0
KSC1 160219Z 06007KT 22/15 A2993 RMK A01 T02160152  RH  067%=      5-min Rain = 0
KSC1 160220Z 06006KT 22/15 A2993 RMK A01 T02160152  RH  067%=      5-min Rain = 0
KSC1 160221Z 06006KT 22/15 A2993 RMK A01 T02160152  RH  067%=      5-min Rain = 0
KSC1 160222Z 07007KT 22/15 A2993 RMK A01 T02160152  RH  067%=      5-min Rain = 0
KSC1 160223Z 07006KT 22/15 A2993 RMK A01 T02160152  RH  067%=      5-min Rain = 0
KSC1 160224Z 08008G13KT 22/15 A2993 RMK A01 T02160151  RH  067%=      5-min Rain = 0
KSC1 160225Z 08009KT 22/15 A2993 RMK A01 T02160150  RH  066%=      5-min Rain = 0
KSC1 160226Z 08011KT 22/15 A2993 RMK A01 T02160149  RH  066%=      5-min Rain = 0
KSC1 160227Z 09010KT 22/15 A2993 RMK A01 T02160149  RH  066%=      5-min Rain = 0
KSC1 160228Z 09008KT 22/15 A2993 RMK A01 T02160149  RH  066%=      5-min Rain = 0
KSC1 160229Z 10008KT 22/15 A2993 RMK A01 T02160149  RH  066%=      5-min Rain = 0
KSC1 160230Z 09009KT 22/15 A2994 RMK A01 T02160148  RH  065%=      5-min Rain = 0
KSC1 160231Z 09007KT 22/15 A2994 RMK A01 T02160148  RH  065%=      5-min Rain = 0
KSC1 160232Z 08007KT 22/15 A2994 RMK A01 T02150149  RH  066%=      5-min Rain = 0
KSC1 160233Z 07007KT 22/15 A2994 RMK A01 T02150148  RH  066%=      5-min Rain = 0
KSC1 160234Z 07005KT 21/15 A2994 RMK A01 T02140148  RH  066%=      5-min Rain = 0
KSC1 160235Z 07007KT 21/15 A2994 RMK A01 T02140148  RH  066%=      5-min Rain = 0
KSC1 160236Z 08007KT 21/15 A2994 RMK A01 T02130147  RH  066%=      5-min Rain = 0
KSC1 160237Z 08007KT 21/15 A2994 RMK A01 T02130147  RH  066%=      5-min Rain = 0
KSC1 160238Z 07006KT 21/15 A2994 RMK A01 T02130147  RH  066%=      5-min Rain = 0
KSC1 160239Z 08007KT 21/15 A2994 RMK A01 T02130147  RH  066%=      5-min Rain = 0
KSC1 160240Z 08007KT 21/15 A2994 RMK A01 T02130147  RH  066%=      5-min Rain = 0
KSC1 160241Z 08006KT 21/15 A2994 RMK A01 T02130146  RH  066%=      5-min Rain = 0
KSC1 160242Z 08006KT 21/15 A2994 RMK A01 T02130147  RH  066%=      5-min Rain = 0
KSC1 160243Z 08005KT 21/15 A2994 RMK A01 T02120147  RH  066%=      5-min Rain = 0
KSC1 160244Z 08005KT 21/15 A2994 RMK A01 T02120147  RH  067%=      5-min Rain = 0
KSC1 160245Z 07005KT 21/15 A2994 RMK A01 T02110147  RH  067%=      5-min Rain = 0
KSC1 160246Z 08005KT 21/15 A2994 RMK A01 T02110148  RH  067%=      5-min Rain = 0
KSC1 160247Z 08007KT 21/15 A2994 RMK A01 T02100147  RH  067%=      5-min Rain = 0
KSC1 160248Z 08006KT 21/15 A2994 RMK A01 T02100147  RH  067%=      5-min Rain = 0
KSC1 160249Z 08005KT 21/15 A2994 RMK A01 T02100148  RH  067%=      5-min Rain = 0
KSC1 160250Z 09007KT 21/15 A2994 RMK A01 T02100148  RH  068%=      5-min Rain = 0
KSC1 160251Z 08006KT 21/15 A2995 RMK A01 T02100148  RH  068%=      5-min Rain = 0
KSC1 160252Z 09006KT 21/15 A2995 RMK A01 T02100148  RH  068%=      5-min Rain = 0
KSC1 160253Z 08006KT 21/15 A2995 RMK A01 T02100148  RH  068%=      5-min Rain = 0
KSC1 160254Z 08004KT 21/15 A2995 RMK A01 T02100148  RH  068%=      5-min Rain = 0
KSC1 160255Z 09004KT 21/15 A2995 RMK A01 T02090148  RH  068%=      5-min Rain = 0
KSC1 160256Z 09004KT 21/15 A2995 RMK A01 T02090149  RH  069%=      5-min Rain = 0
KSC1 160257Z 08004KT 21/15 A2995 RMK A01 T02080149  RH  069%=      5-min Rain = 0
KSC1 160258Z 08004KT 21/15 A2995 RMK A01 T02080149  RH  069%=      5-min Rain = 0
KSC1 160259Z 07004KT 21/15 A2995 RMK A01 T02070148  RH  069%=      5-min Rain = 0
KSC1 160300Z 07004KT 21/15 A2995 RMK A01 T02070148  RH  069%=      5-min Rain = 0
KSC1 160301Z 08005KT 21/15 A2995 RMK A01 T02070149  RH  070%=      5-min Rain = 0
KSC1 160302Z 07005KT 21/15 A2995 RMK A01 T02070149  RH  069%=      5-min Rain = 0
KSC1 160303Z 07005KT 21/15 A2995 RMK A01 T02060149  RH  070%=      5-min Rain = 0
KSC1 160304Z 08005KT 21/15 A2995 RMK A01 T02060148  RH  069%=      5-min Rain = 0
KSC1 160305Z 08005KT 21/15 A2995 RMK A01 T02060148  RH  069%=      5-min Rain = 0
KSC1 160306Z 09004KT 21/15 A2995 RMK A01 T02070149  RH  069%=      5-min Rain = 0
KSC1 160307Z 09004KT 21/15 A2995 RMK A01 T02060149  RH  070%=      5-min Rain = 0
KSC1 160308Z 09004KT 21/15 A2995 RMK A01 T02060149  RH  070%=      5-min Rain = 0
KSC1 160309Z 08004KT 21/15 A2995 RMK A01 T02060149  RH  069%=      5-min Rain = 0
KSC1 160310Z 07003KT 21/15 A2995 RMK A01 T02060148  RH  070%=      5-min Rain = 0
KSC1 160311Z 08003KT 21/15 A2996 RMK A01 T02060148  RH  069%=      5-min Rain = 0
KSC1 160312Z 07004KT 21/15 A2996 RMK A01 T02060149  RH  070%=      5-min Rain = 0
KSC1 160313Z 07003KT 21/15 A2996 RMK A01 T02060149  RH  070%=      5-min Rain = 0
KSC1 160314Z 06004KT 21/15 A2996 RMK A01 T02060149  RH  070%=      5-min Rain = 0
KSC1 160315Z 07004KT 21/15 A2996 RMK A01 T02060149  RH  070%=      5-min Rain = 0
KSC1 160316Z 06003KT 21/15 A2996 RMK A01 T02050149  RH  070%=      5-min Rain = 0
KSC1 160317Z 05004KT 21/15 A2996 RMK A01 T02050150  RH  070%=      5-min Rain = 0
KSC1 160318Z 05004KT 21/15 A2996 RMK A01 T02050151  RH  071%=      5-min Rain = 0
KSC1 160319Z 05005KT 21/15 A2996 RMK A01 T02050151  RH  071%=      5-min Rain = 0
KSC1 160320Z 04005KT 21/15 A2996 RMK A01 T02050151  RH  071%=      5-min Rain = 0
KSC1 160326Z 07006KT 21/15 A2997 RMK A01 T02060149  RH  070%=      5-min Rain = 0
KSC1 160327Z 07007KT 21/15 A2997 RMK A01 T02060150  RH  070%=      5-min Rain = 0
KSC1 160328Z 07008KT 21/15 A2998 RMK A01 T02060150  RH  070%=      5-min Rain = 0
KSC1 160329Z 07009KT 21/15 A2998 RMK A01 T02060150  RH  070%=      5-min Rain = 0
KSC1 160330Z 06008KT 21/15 A2998 RMK A01 T02060150  RH  070%=      5-min Rain = 0
KSC1 160331Z 06007KT 21/15 A2998 RMK A01 T02060150  RH  070%=      5-min Rain = 0
KSC1 160332Z 07006KT 21/15 A2998 RMK A01 T02060150  RH  070%=      5-min Rain = 0
KSC1 160333Z 07006KT 21/15 A2999 RMK A01 T02060150  RH  070%=      5-min Rain = 0
KSC1 160334Z 08006KT 21/15 A2999 RMK A01 T02060151  RH  071%=      5-min Rain = 0
KSC1 160335Z 08008KT 21/15 A2999 RMK A01 T02060151  RH  071%=      5-min Rain = 0
KSC1 160336Z 09008KT 21/15 A2999 RMK A01 T02060151  RH  071%=      5-min Rain = 0
KSC1 160337Z 09007KT 21/15 A2999 RMK A01 T02060151  RH  071%=      5-min Rain = 0
KSC1 160338Z 09006KT 21/15 A2999 RMK A01 T02060151  RH  071%=      5-min Rain = 0
KSC1 160339Z 10006KT 21/15 A2998 RMK A01 T02060151  RH  070%=      5-min Rain = 0
KSC1 160340Z 09007KT 21/15 A2999 RMK A01 T02060152  RH  071%=      5-min Rain = 0
KSC1 160341Z 08008KT 21/15 A2999 RMK A01 T02060151  RH  071%=      5-min Rain = 0
KSC1 160342Z 08009KT 21/15 A2999 RMK A01 T02060150  RH  070%=      5-min Rain = 0
KSC1 160343Z 08007KT 21/15 A2999 RMK A01 T02060151  RH  070%=      5-min Rain = 0
KSC1 160344Z 08009KT 21/15 A2999 RMK A01 T02070150  RH  070%=      5-min Rain = 0
KSC1 160345Z 09007KT 21/15 A2999 RMK A01 T02070149  RH  070%=      5-min Rain = 0
KSC1 160346Z 09008KT 21/15 A2999 RMK A01 T02070150  RH  070%=      5-min Rain = 0
KSC1 160347Z 09007KT 21/15 A2999 RMK A01 T02080149  RH  069%=      5-min Rain = 0
KSC1 160348Z 09008KT 21/15 A2999 RMK A01 T02080149  RH  069%=      5-min Rain = 0
KSC1 160349Z 08008KT 21/15 A30 RMK A01 T02080148  RH  068%=      5-min Rain = 0
KSC1 160350Z 09008KT 21/15 A30 RMK A01 T02080149  RH  069%=      5-min Rain = 0
KSC1 160351Z 09008KT 21/15 A30 RMK A01 T02080148  RH  068%=      5-min Rain = 0
KSC1 160352Z 09008KT 21/15 A30 RMK A01 T02090148  RH  068%=      5-min Rain = 0
KSC1 160353Z 08008KT 21/15 A30 RMK A01 T02090147  RH  068%=      5-min Rain = 0
KSC1 160354Z 08006KT 21/15 A30 RMK A01 T02090147  RH  068%=      5-min Rain = 0
KSC1 160355Z 08006KT 21/15 A30 RMK A01 T02090147  RH  068%=      5-min Rain = 0
KSC1 160356Z 08005KT 21/15 A30 RMK A01 T02090148  RH  068%=      5-min Rain = 0
KSC1 160357Z 09007KT 21/15 A30 RMK A01 T02090147  RH  068%=      5-min Rain = 0
KSC1 160358Z 08007KT 21/15 A30 RMK A01 T02090147  RH  068%=      5-min Rain = 0
KSC1 160359Z 09009KT 21/15 A30 RMK A01 T02090146  RH  067%=      5-min Rain = 0
KSC1 160400Z 08007KT 21/15 A30 RMK A01 T02100146  RH  067%=      5-min Rain = 0
KSC1 160401Z 08005KT 21/15 A30 RMK A01 T02100146  RH  067%=      5-min Rain = 0
KSC1 160402Z 08005KT 21/15 A30 RMK A01 T02100147  RH  067%=      5-min Rain = 0
KSC1 160403Z 06006KT 21/15 A30 RMK A01 T02090148  RH  068%=      5-min Rain = 0
KSC1 160404Z 08008KT 21/15 A30 RMK A01 T02090148  RH  068%=      5-min Rain = 0
KSC1 160405Z 08008KT 21/15 A3001 RMK A01 T02090148  RH  068%=      5-min Rain = 0
KSC1 160406Z 07008KT 21/15 A3001 RMK A01 T02090149  RH  068%=      5-min Rain = 0
KSC1 160407Z 08007KT 21/15 A3001 RMK A01 T02090149  RH  068%=      5-min Rain = 0
KSC1 160408Z 08006KT 21/15 A3001 RMK A01 T02090149  RH  068%=      5-min Rain = 0
KSC1 160409Z 08006KT 21/15 A3001 RMK A01 T02090150  RH  069%=      5-min Rain = 0
KSC1 160410Z 09007KT 21/15 A3001 RMK A01 T02090149  RH  069%=      5-min Rain = 0
KSC1 160411Z 08006KT 21/15 A3001 RMK A01 T02090149  RH  069%=      5-min Rain = 0
KSC1 160412Z 09006KT 21/15 A3001 RMK A01 T02080150  RH  069%=      5-min Rain = 0
KSC1 160413Z 10006KT 21/15 A3001 RMK A01 T02080150  RH  069%=      5-min Rain = 0
KSC1 160414Z 09006KT 21/15 A30 RMK A01 T02080150  RH  069%=      5-min Rain = 0
KSC1 160415Z 10005KT 21/15 A30 RMK A01 T02070150  RH  070%=      5-min Rain = 0
KSC1 160416Z 10006KT 21/15 A30 RMK A01 T02070149  RH  070%=      5-min Rain = 0
KSC1 160417Z 10007KT 21/15 A30 RMK A01 T02070149  RH  069%=      5-min Rain = 0
KSC1 160418Z 09007KT 21/15 A30 RMK A01 T02070149  RH  070%=      5-min Rain = 0
KSC1 160419Z 09007KT 21/15 A30 RMK A01 T02070149  RH  069%=      5-min Rain = 0
KSC1 160420Z 09008KT 21/15 A30 RMK A01 T02070149  RH  069%=      5-min Rain = 0
KSC1 160421Z 09007KT 21/15 A30 RMK A01 T02080149  RH  069%=      5-min Rain = 0
KSC1 160422Z 09007KT 21/15 A30 RMK A01 T02080149  RH  069%=      5-min Rain = 0
KSC1 160423Z 09006KT 21/15 A3001 RMK A01 T02080150  RH  069%=      5-min Rain = 0
KSC1 160424Z 09008KT 21/15 A3001 RMK A01 T02070149  RH  069%=      5-min Rain = 0
KSC1 160425Z 10008KT 21/15 A3001 RMK A01 T02080150  RH  069%=      5-min Rain = 0
KSC1 160426Z 10007KT 21/15 A3001 RMK A01 T02080150  RH  070%=      5-min Rain = 0
KSC1 160427Z 10008KT 21/15 A3001 RMK A01 T02070151  RH  070%=      5-min Rain = 0
KSC1 160428Z 10009KT 21/15 A3001 RMK A01 T02060150  RH  070%=      5-min Rain = 0
KSC1 160429Z 09007KT 21/15 A3001 RMK A01 T02060150  RH  070%=      5-min Rain = 0
KSC1 160430Z 10007KT 21/15 A3001 RMK A01 T02060150  RH  070%=      5-min Rain = 0
KSC1 160431Z 10007KT 21/15 A3001 RMK A01 T02060150  RH  070%=      5-min Rain = 0
KSC1 160432Z 11009KT 21/15 A3001 RMK A01 T02060150  RH  070%=      5-min Rain = 0
KSC1 160433Z 11008KT 21/15 A3001 RMK A01 T02060149  RH  070%=      5-min Rain = 0
KSC1 160434Z 11009KT 21/15 A3001 RMK A01 T02060149  RH  070%=      5-min Rain = 0
KSC1 160435Z 11008KT 21/15 A3001 RMK A01 T02050148  RH  070%=      5-min Rain = 0
KSC1 160436Z 11009KT 21/15 A3001 RMK A01 T02060148  RH  070%=      5-min Rain = 0
KSC1 160437Z 11011KT 21/15 A3001 RMK A01 T02060146  RH  069%=      5-min Rain = 0
KSC1 160438Z 11010KT 21/15 A3001 RMK A01 T02070146  RH  068%=      5-min Rain = 0
KSC1 160439Z 11008KT 21/15 A30 RMK A01 T02070146  RH  068%=      5-min Rain = 0
KSC1 160440Z 11009KT 21/15 A30 RMK A01 T02070147  RH  068%=      5-min Rain = 0
KSC1 160441Z 11009KT 21/15 A30 RMK A01 T02070147  RH  069%=      5-min Rain = 0
KSC1 160442Z 12008KT 21/15 A30 RMK A01 T02060148  RH  069%=      5-min Rain = 0
KSC1 160443Z 12009KT 21/15 A30 RMK A01 T02060147  RH  069%=      5-min Rain = 0
KSC1 160444Z 12011KT 21/15 A30 RMK A01 T02060146  RH  068%=      5-min Rain = 0
KSC1 160445Z 12010KT 21/15 A30 RMK A01 T02060145  RH  068%=      5-min Rain = 0
KSC1 160446Z 12010KT 21/15 A30 RMK A01 T02070145  RH  068%=      5-min Rain = 0
KSC1 160447Z 12008KT 21/15 A30 RMK A01 T02060145  RH  068%=      5-min Rain = 0
KSC1 160448Z 12008KT 21/15 A30 RMK A01 T02070146  RH  068%=      5-min Rain = 0
KSC1 160449Z 12009KT 21/15 A30 RMK A01 T02060145  RH  068%=      5-min Rain = 0
KSC1 160450Z 12009KT 21/14 A30 RMK A01 T02060144  RH  067%=      5-min Rain = 0
KSC1 160451Z 11010KT 21/14 A30 RMK A01 T02060143  RH  067%=      5-min Rain = 0
KSC1 160452Z 11008KT 21/14 A30 RMK A01 T02060143  RH  067%=      5-min Rain = 0
KSC1 160453Z 11009KT 21/14 A30 RMK A01 T02070143  RH  067%=      5-min Rain = 0
KSC1 160454Z 11009KT 21/14 A30 RMK A01 T02070142  RH  067%=      5-min Rain = 0
KSC1 160455Z 11009KT 21/14 A30 RMK A01 T02070142  RH  067%=      5-min Rain = 0
KSC1 160456Z 10009KT 21/14 A30 RMK A01 T02070141  RH  066%=      5-min Rain = 0
KSC1 160457Z 11010KT 21/14 A30 RMK A01 T02070140  RH  066%=      5-min Rain = 0
KSC1 160458Z 11007KT 21/14 A30 RMK A01 T02070141  RH  066%=      5-min Rain = 0
KSC1 160459Z 11009KT 21/14 A3001 RMK A01 T02070141  RH  066%=      5-min Rain = 0

Page generated in 0.0329 seconds.